<?xml version="1.0" encoding="UTF-8"?>
<gpx xmlns="http://www.topografix.com/GPX/1/1" xmlns:xsi="http://www.w3.org/2001/XMLSchema-instance" version="1.1" creator="Trace de Trail" xsi:schemaLocation="http://www.topografix.com/GPX/1/1 http://www.topografix.com/GPX/1/1/gpx.xsd">
  <metadata>
    <name>Trail de Dinant Winter  2026 - 17km</name>
    <desc>Parcours créé sur Trace de Trail</desc>
    <link href="https://tracedetrail.fr/fr/trace/356864">
      <text>Cartographie du parcours</text>
    </link>
    <time>2026-08-24T13:13:43+00:00</time>
  </metadata>
  <wpt lat="50.25941" lon="4.90712">
    <ele>137</ele>
    <type>depart</type>
  </wpt>
  <wpt lat="50.23536" lon="4.93827">
    <ele>246</ele>
    <name>Ravito 1 : Salle des fêtes Dréhance</name>
    <type>fanzone_ravitoc_ravitoliquide_toilettes</type>
  </wpt>
  <wpt lat="50.25941" lon="4.90712">
    <ele>137</ele>
    <type>arrivee</type>
  </wpt>
  <trk>
    <name>Trail de Dinant Winter  2026 - 17km sur TraceDeTrail.fr</name>
    <src>Trace de Trail</src>
    <trkseg>
      <trkpt lat="50.25941" lon="4.90712">
        <ele>137</ele>
        <time>2026-08-24T13:13:43+00:00</time>
      </trkpt>
      <trkpt lat="50.25979" lon="4.90694">
        <ele>137</ele>
        <time>2026-08-24T13:13:46+00:00</time>
      </trkpt>
      <trkpt lat="50.25991" lon="4.90683">
        <ele>140</ele>
        <time>2026-08-24T13:13:49+00:00</time>
      </trkpt>
      <trkpt lat="50.26016" lon="4.90664">
        <ele>144</ele>
        <time>2026-08-24T13:13:52+00:00</time>
      </trkpt>
      <trkpt lat="50.26051" lon="4.90646">
        <ele>138</ele>
        <time>2026-08-24T13:13:55+00:00</time>
      </trkpt>
      <trkpt lat="50.2606" lon="4.90644">
        <ele>146</ele>
        <time>2026-08-24T13:13:58+00:00</time>
      </trkpt>
      <trkpt lat="50.26076" lon="4.90654">
        <ele>133</ele>
        <time>2026-08-24T13:14:01+00:00</time>
      </trkpt>
      <trkpt lat="50.26074" lon="4.90658">
        <ele>133</ele>
        <time>2026-08-24T13:14:04+00:00</time>
      </trkpt>
      <trkpt lat="50.26069" lon="4.90665">
        <ele>127</ele>
        <time>2026-08-24T13:14:07+00:00</time>
      </trkpt>
      <trkpt lat="50.26056" lon="4.907">
        <ele>124</ele>
        <time>2026-08-24T13:14:10+00:00</time>
      </trkpt>
      <trkpt lat="50.26049" lon="4.90729">
        <ele>123</ele>
        <time>2026-08-24T13:14:13+00:00</time>
      </trkpt>
      <trkpt lat="50.26044" lon="4.90768">
        <ele>116</ele>
        <time>2026-08-24T13:14:16+00:00</time>
      </trkpt>
      <trkpt lat="50.26039" lon="4.90785">
        <ele>115</ele>
        <time>2026-08-24T13:14:19+00:00</time>
      </trkpt>
      <trkpt lat="50.2603" lon="4.90803">
        <ele>112</ele>
        <time>2026-08-24T13:14:22+00:00</time>
      </trkpt>
      <trkpt lat="50.26004" lon="4.90844">
        <ele>113</ele>
        <time>2026-08-24T13:14:25+00:00</time>
      </trkpt>
      <trkpt lat="50.25976" lon="4.90878">
        <ele>112</ele>
        <time>2026-08-24T13:14:28+00:00</time>
      </trkpt>
      <trkpt lat="50.25959" lon="4.90898">
        <ele>112</ele>
        <time>2026-08-24T13:14:31+00:00</time>
      </trkpt>
      <trkpt lat="50.25941" lon="4.90919">
        <ele>108</ele>
        <time>2026-08-24T13:14:34+00:00</time>
      </trkpt>
      <trkpt lat="50.2592" lon="4.90949">
        <ele>104</ele>
        <time>2026-08-24T13:14:37+00:00</time>
      </trkpt>
      <trkpt lat="50.25922" lon="4.90951">
        <ele>99</ele>
        <time>2026-08-24T13:14:40+00:00</time>
      </trkpt>
      <trkpt lat="50.25911" lon="4.90966">
        <ele>97</ele>
        <time>2026-08-24T13:14:43+00:00</time>
      </trkpt>
      <trkpt lat="50.25913" lon="4.90968">
        <ele>97</ele>
        <time>2026-08-24T13:14:46+00:00</time>
      </trkpt>
      <trkpt lat="50.25922" lon="4.9096">
        <ele>97</ele>
        <time>2026-08-24T13:14:49+00:00</time>
      </trkpt>
      <trkpt lat="50.25927" lon="4.90972">
        <ele>97</ele>
        <time>2026-08-24T13:14:52+00:00</time>
      </trkpt>
      <trkpt lat="50.2593" lon="4.90976">
        <ele>96</ele>
        <time>2026-08-24T13:14:55+00:00</time>
      </trkpt>
      <trkpt lat="50.25933" lon="4.90977">
        <ele>97</ele>
        <time>2026-08-24T13:14:58+00:00</time>
      </trkpt>
      <trkpt lat="50.2596" lon="4.90981">
        <ele>97</ele>
        <time>2026-08-24T13:15:01+00:00</time>
      </trkpt>
      <trkpt lat="50.25986" lon="4.90983">
        <ele>96</ele>
        <time>2026-08-24T13:15:04+00:00</time>
      </trkpt>
      <trkpt lat="50.25996" lon="4.90992">
        <ele>95</ele>
        <time>2026-08-24T13:15:07+00:00</time>
      </trkpt>
      <trkpt lat="50.26002" lon="4.90991">
        <ele>95</ele>
        <time>2026-08-24T13:15:10+00:00</time>
      </trkpt>
      <trkpt lat="50.26004" lon="4.90997">
        <ele>95</ele>
        <time>2026-08-24T13:15:13+00:00</time>
      </trkpt>
      <trkpt lat="50.26006" lon="4.90998">
        <ele>95</ele>
        <time>2026-08-24T13:15:16+00:00</time>
      </trkpt>
      <trkpt lat="50.2601" lon="4.90998">
        <ele>95</ele>
        <time>2026-08-24T13:15:19+00:00</time>
      </trkpt>
      <trkpt lat="50.26015" lon="4.91022">
        <ele>94</ele>
        <time>2026-08-24T13:15:22+00:00</time>
      </trkpt>
      <trkpt lat="50.26021" lon="4.91047">
        <ele>94</ele>
        <time>2026-08-24T13:15:25+00:00</time>
      </trkpt>
      <trkpt lat="50.26023" lon="4.91059">
        <ele>93</ele>
        <time>2026-08-24T13:15:28+00:00</time>
      </trkpt>
      <trkpt lat="50.2603" lon="4.91096">
        <ele>92</ele>
        <time>2026-08-24T13:15:31+00:00</time>
      </trkpt>
      <trkpt lat="50.26043" lon="4.91161">
        <ele>92</ele>
        <time>2026-08-24T13:15:34+00:00</time>
      </trkpt>
      <trkpt lat="50.26053" lon="4.91203">
        <ele>93</ele>
        <time>2026-08-24T13:15:37+00:00</time>
      </trkpt>
      <trkpt lat="50.26084" lon="4.9122">
        <ele>93</ele>
        <time>2026-08-24T13:15:40+00:00</time>
      </trkpt>
      <trkpt lat="50.26083" lon="4.91222">
        <ele>93</ele>
        <time>2026-08-24T13:15:43+00:00</time>
      </trkpt>
      <trkpt lat="50.26098" lon="4.91269">
        <ele>95</ele>
        <time>2026-08-24T13:15:46+00:00</time>
      </trkpt>
      <trkpt lat="50.26108" lon="4.91296">
        <ele>98</ele>
        <time>2026-08-24T13:15:49+00:00</time>
      </trkpt>
      <trkpt lat="50.26124" lon="4.91342">
        <ele>122</ele>
        <time>2026-08-24T13:15:52+00:00</time>
      </trkpt>
      <trkpt lat="50.26152" lon="4.9135">
        <ele>145</ele>
        <time>2026-08-24T13:15:55+00:00</time>
      </trkpt>
      <trkpt lat="50.26154" lon="4.91328">
        <ele>134</ele>
        <time>2026-08-24T13:15:58+00:00</time>
      </trkpt>
      <trkpt lat="50.26156" lon="4.91328">
        <ele>134</ele>
        <time>2026-08-24T13:16:01+00:00</time>
      </trkpt>
      <trkpt lat="50.26155" lon="4.91361">
        <ele>141</ele>
        <time>2026-08-24T13:16:04+00:00</time>
      </trkpt>
      <trkpt lat="50.26157" lon="4.91361">
        <ele>150</ele>
        <time>2026-08-24T13:16:07+00:00</time>
      </trkpt>
      <trkpt lat="50.26161" lon="4.91328">
        <ele>137</ele>
        <time>2026-08-24T13:16:10+00:00</time>
      </trkpt>
      <trkpt lat="50.26161" lon="4.91322">
        <ele>137</ele>
        <time>2026-08-24T13:16:13+00:00</time>
      </trkpt>
      <trkpt lat="50.26158" lon="4.91293">
        <ele>132</ele>
        <time>2026-08-24T13:16:16+00:00</time>
      </trkpt>
      <trkpt lat="50.26159" lon="4.91292">
        <ele>124</ele>
        <time>2026-08-24T13:16:19+00:00</time>
      </trkpt>
      <trkpt lat="50.26161" lon="4.91292">
        <ele>128</ele>
        <time>2026-08-24T13:16:22+00:00</time>
      </trkpt>
      <trkpt lat="50.26161" lon="4.91296">
        <ele>128</ele>
        <time>2026-08-24T13:16:25+00:00</time>
      </trkpt>
      <trkpt lat="50.26162" lon="4.91304">
        <ele>130</ele>
        <time>2026-08-24T13:16:28+00:00</time>
      </trkpt>
      <trkpt lat="50.26167" lon="4.91303">
        <ele>130</ele>
        <time>2026-08-24T13:16:31+00:00</time>
      </trkpt>
      <trkpt lat="50.26167" lon="4.91295">
        <ele>128</ele>
        <time>2026-08-24T13:16:34+00:00</time>
      </trkpt>
      <trkpt lat="50.26166" lon="4.9129">
        <ele>128</ele>
        <time>2026-08-24T13:16:37+00:00</time>
      </trkpt>
      <trkpt lat="50.26167" lon="4.9129">
        <ele>128</ele>
        <time>2026-08-24T13:16:40+00:00</time>
      </trkpt>
      <trkpt lat="50.26161" lon="4.91256">
        <ele>117</ele>
        <time>2026-08-24T13:16:43+00:00</time>
      </trkpt>
      <trkpt lat="50.26165" lon="4.9122">
        <ele>118</ele>
        <time>2026-08-24T13:16:46+00:00</time>
      </trkpt>
      <trkpt lat="50.26184" lon="4.91243">
        <ele>120</ele>
        <time>2026-08-24T13:16:49+00:00</time>
      </trkpt>
      <trkpt lat="50.26188" lon="4.9126">
        <ele>125</ele>
        <time>2026-08-24T13:16:52+00:00</time>
      </trkpt>
      <trkpt lat="50.26189" lon="4.91287">
        <ele>130</ele>
        <time>2026-08-24T13:16:55+00:00</time>
      </trkpt>
      <trkpt lat="50.26191" lon="4.91317">
        <ele>140</ele>
        <time>2026-08-24T13:16:58+00:00</time>
      </trkpt>
      <trkpt lat="50.26202" lon="4.91332">
        <ele>148</ele>
        <time>2026-08-24T13:17:01+00:00</time>
      </trkpt>
      <trkpt lat="50.26206" lon="4.91347">
        <ele>144</ele>
        <time>2026-08-24T13:17:04+00:00</time>
      </trkpt>
      <trkpt lat="50.26194" lon="4.91353">
        <ele>152</ele>
        <time>2026-08-24T13:17:07+00:00</time>
      </trkpt>
      <trkpt lat="50.26177" lon="4.91355">
        <ele>149</ele>
        <time>2026-08-24T13:17:10+00:00</time>
      </trkpt>
      <trkpt lat="50.26177" lon="4.91401">
        <ele>164</ele>
        <time>2026-08-24T13:17:13+00:00</time>
      </trkpt>
      <trkpt lat="50.26176" lon="4.91414">
        <ele>167</ele>
        <time>2026-08-24T13:17:16+00:00</time>
      </trkpt>
      <trkpt lat="50.26176" lon="4.91428">
        <ele>169</ele>
        <time>2026-08-24T13:17:19+00:00</time>
      </trkpt>
      <trkpt lat="50.26175" lon="4.91436">
        <ele>171</ele>
        <time>2026-08-24T13:17:22+00:00</time>
      </trkpt>
      <trkpt lat="50.2615" lon="4.91457">
        <ele>172</ele>
        <time>2026-08-24T13:17:25+00:00</time>
      </trkpt>
      <trkpt lat="50.26143" lon="4.91472">
        <ele>173</ele>
        <time>2026-08-24T13:17:28+00:00</time>
      </trkpt>
      <trkpt lat="50.26141" lon="4.91483">
        <ele>174</ele>
        <time>2026-08-24T13:17:31+00:00</time>
      </trkpt>
      <trkpt lat="50.2614" lon="4.91491">
        <ele>173</ele>
        <time>2026-08-24T13:17:34+00:00</time>
      </trkpt>
      <trkpt lat="50.26141" lon="4.91501">
        <ele>178</ele>
        <time>2026-08-24T13:17:37+00:00</time>
      </trkpt>
      <trkpt lat="50.26143" lon="4.91507">
        <ele>178</ele>
        <time>2026-08-24T13:17:40+00:00</time>
      </trkpt>
      <trkpt lat="50.26146" lon="4.91511">
        <ele>181</ele>
        <time>2026-08-24T13:17:43+00:00</time>
      </trkpt>
      <trkpt lat="50.26152" lon="4.91516">
        <ele>182</ele>
        <time>2026-08-24T13:17:46+00:00</time>
      </trkpt>
      <trkpt lat="50.26155" lon="4.91521">
        <ele>183</ele>
        <time>2026-08-24T13:17:49+00:00</time>
      </trkpt>
      <trkpt lat="50.26167" lon="4.91526">
        <ele>183</ele>
        <time>2026-08-24T13:17:52+00:00</time>
      </trkpt>
      <trkpt lat="50.2616" lon="4.91591">
        <ele>183</ele>
        <time>2026-08-24T13:17:55+00:00</time>
      </trkpt>
      <trkpt lat="50.26156" lon="4.91626">
        <ele>183</ele>
        <time>2026-08-24T13:17:58+00:00</time>
      </trkpt>
      <trkpt lat="50.26151" lon="4.91667">
        <ele>184</ele>
        <time>2026-08-24T13:18:01+00:00</time>
      </trkpt>
      <trkpt lat="50.26149" lon="4.91677">
        <ele>185</ele>
        <time>2026-08-24T13:18:04+00:00</time>
      </trkpt>
      <trkpt lat="50.26135" lon="4.91673">
        <ele>185</ele>
        <time>2026-08-24T13:18:07+00:00</time>
      </trkpt>
      <trkpt lat="50.26126" lon="4.91673">
        <ele>186</ele>
        <time>2026-08-24T13:18:10+00:00</time>
      </trkpt>
      <trkpt lat="50.261" lon="4.91677">
        <ele>184</ele>
        <time>2026-08-24T13:18:13+00:00</time>
      </trkpt>
      <trkpt lat="50.26084" lon="4.91676">
        <ele>186</ele>
        <time>2026-08-24T13:18:16+00:00</time>
      </trkpt>
      <trkpt lat="50.26062" lon="4.91676">
        <ele>184</ele>
        <time>2026-08-24T13:18:19+00:00</time>
      </trkpt>
      <trkpt lat="50.26024" lon="4.91675">
        <ele>181</ele>
        <time>2026-08-24T13:18:22+00:00</time>
      </trkpt>
      <trkpt lat="50.26014" lon="4.91668">
        <ele>179</ele>
        <time>2026-08-24T13:18:25+00:00</time>
      </trkpt>
      <trkpt lat="50.26005" lon="4.91667">
        <ele>178</ele>
        <time>2026-08-24T13:18:28+00:00</time>
      </trkpt>
      <trkpt lat="50.25997" lon="4.91673">
        <ele>178</ele>
        <time>2026-08-24T13:18:31+00:00</time>
      </trkpt>
      <trkpt lat="50.25988" lon="4.91675">
        <ele>176</ele>
        <time>2026-08-24T13:18:34+00:00</time>
      </trkpt>
      <trkpt lat="50.25972" lon="4.91682">
        <ele>176</ele>
        <time>2026-08-24T13:18:37+00:00</time>
      </trkpt>
      <trkpt lat="50.25967" lon="4.91682">
        <ele>178</ele>
        <time>2026-08-24T13:18:40+00:00</time>
      </trkpt>
      <trkpt lat="50.25965" lon="4.91685">
        <ele>174</ele>
        <time>2026-08-24T13:18:43+00:00</time>
      </trkpt>
      <trkpt lat="50.25964" lon="4.91696">
        <ele>176</ele>
        <time>2026-08-24T13:18:46+00:00</time>
      </trkpt>
      <trkpt lat="50.25954" lon="4.91721">
        <ele>181</ele>
        <time>2026-08-24T13:18:49+00:00</time>
      </trkpt>
      <trkpt lat="50.25952" lon="4.91734">
        <ele>183</ele>
        <time>2026-08-24T13:18:52+00:00</time>
      </trkpt>
      <trkpt lat="50.25944" lon="4.9175">
        <ele>184</ele>
        <time>2026-08-24T13:18:55+00:00</time>
      </trkpt>
      <trkpt lat="50.25947" lon="4.91786">
        <ele>185</ele>
        <time>2026-08-24T13:18:58+00:00</time>
      </trkpt>
      <trkpt lat="50.25944" lon="4.91795">
        <ele>185</ele>
        <time>2026-08-24T13:19:01+00:00</time>
      </trkpt>
      <trkpt lat="50.25935" lon="4.91817">
        <ele>185</ele>
        <time>2026-08-24T13:19:04+00:00</time>
      </trkpt>
      <trkpt lat="50.2591" lon="4.91855">
        <ele>185</ele>
        <time>2026-08-24T13:19:07+00:00</time>
      </trkpt>
      <trkpt lat="50.25903" lon="4.91847">
        <ele>185</ele>
        <time>2026-08-24T13:19:10+00:00</time>
      </trkpt>
      <trkpt lat="50.25897" lon="4.91834">
        <ele>184</ele>
        <time>2026-08-24T13:19:13+00:00</time>
      </trkpt>
      <trkpt lat="50.25857" lon="4.91844">
        <ele>184</ele>
        <time>2026-08-24T13:19:16+00:00</time>
      </trkpt>
      <trkpt lat="50.25834" lon="4.91851">
        <ele>184</ele>
        <time>2026-08-24T13:19:19+00:00</time>
      </trkpt>
      <trkpt lat="50.25807" lon="4.9186">
        <ele>184</ele>
        <time>2026-08-24T13:19:22+00:00</time>
      </trkpt>
      <trkpt lat="50.258" lon="4.91855">
        <ele>185</ele>
        <time>2026-08-24T13:19:25+00:00</time>
      </trkpt>
      <trkpt lat="50.25793" lon="4.91854">
        <ele>184</ele>
        <time>2026-08-24T13:19:28+00:00</time>
      </trkpt>
      <trkpt lat="50.25788" lon="4.91855">
        <ele>184</ele>
        <time>2026-08-24T13:19:31+00:00</time>
      </trkpt>
      <trkpt lat="50.25777" lon="4.91867">
        <ele>184</ele>
        <time>2026-08-24T13:19:34+00:00</time>
      </trkpt>
      <trkpt lat="50.25769" lon="4.91889">
        <ele>184</ele>
        <time>2026-08-24T13:19:37+00:00</time>
      </trkpt>
      <trkpt lat="50.2576" lon="4.91912">
        <ele>185</ele>
        <time>2026-08-24T13:19:40+00:00</time>
      </trkpt>
      <trkpt lat="50.25743" lon="4.91954">
        <ele>189</ele>
        <time>2026-08-24T13:19:43+00:00</time>
      </trkpt>
      <trkpt lat="50.25729" lon="4.91971">
        <ele>190</ele>
        <time>2026-08-24T13:19:46+00:00</time>
      </trkpt>
      <trkpt lat="50.25725" lon="4.91974">
        <ele>190</ele>
        <time>2026-08-24T13:19:49+00:00</time>
      </trkpt>
      <trkpt lat="50.25716" lon="4.91978">
        <ele>190</ele>
        <time>2026-08-24T13:19:52+00:00</time>
      </trkpt>
      <trkpt lat="50.25705" lon="4.91979">
        <ele>190</ele>
        <time>2026-08-24T13:19:55+00:00</time>
      </trkpt>
      <trkpt lat="50.25698" lon="4.91976">
        <ele>190</ele>
        <time>2026-08-24T13:19:58+00:00</time>
      </trkpt>
      <trkpt lat="50.25688" lon="4.91967">
        <ele>190</ele>
        <time>2026-08-24T13:20:01+00:00</time>
      </trkpt>
      <trkpt lat="50.25677" lon="4.9195">
        <ele>190</ele>
        <time>2026-08-24T13:20:04+00:00</time>
      </trkpt>
      <trkpt lat="50.25664" lon="4.91923">
        <ele>190</ele>
        <time>2026-08-24T13:20:07+00:00</time>
      </trkpt>
      <trkpt lat="50.25657" lon="4.91913">
        <ele>191</ele>
        <time>2026-08-24T13:20:10+00:00</time>
      </trkpt>
      <trkpt lat="50.25655" lon="4.91911">
        <ele>191</ele>
        <time>2026-08-24T13:20:13+00:00</time>
      </trkpt>
      <trkpt lat="50.25632" lon="4.9191">
        <ele>190</ele>
        <time>2026-08-24T13:20:16+00:00</time>
      </trkpt>
      <trkpt lat="50.25627" lon="4.91908">
        <ele>191</ele>
        <time>2026-08-24T13:20:19+00:00</time>
      </trkpt>
      <trkpt lat="50.25604" lon="4.91913">
        <ele>190</ele>
        <time>2026-08-24T13:20:22+00:00</time>
      </trkpt>
      <trkpt lat="50.25591" lon="4.91923">
        <ele>189</ele>
        <time>2026-08-24T13:20:25+00:00</time>
      </trkpt>
      <trkpt lat="50.25587" lon="4.91932">
        <ele>190</ele>
        <time>2026-08-24T13:20:28+00:00</time>
      </trkpt>
      <trkpt lat="50.25584" lon="4.91936">
        <ele>190</ele>
        <time>2026-08-24T13:20:31+00:00</time>
      </trkpt>
      <trkpt lat="50.25579" lon="4.9194">
        <ele>191</ele>
        <time>2026-08-24T13:20:34+00:00</time>
      </trkpt>
      <trkpt lat="50.25577" lon="4.91939">
        <ele>189</ele>
        <time>2026-08-24T13:20:37+00:00</time>
      </trkpt>
      <trkpt lat="50.2557" lon="4.91933">
        <ele>191</ele>
        <time>2026-08-24T13:20:40+00:00</time>
      </trkpt>
      <trkpt lat="50.25566" lon="4.91933">
        <ele>189</ele>
        <time>2026-08-24T13:20:43+00:00</time>
      </trkpt>
      <trkpt lat="50.25563" lon="4.91935">
        <ele>189</ele>
        <time>2026-08-24T13:20:46+00:00</time>
      </trkpt>
      <trkpt lat="50.25547" lon="4.91939">
        <ele>192</ele>
        <time>2026-08-24T13:20:49+00:00</time>
      </trkpt>
      <trkpt lat="50.25534" lon="4.91961">
        <ele>196</ele>
        <time>2026-08-24T13:20:52+00:00</time>
      </trkpt>
      <trkpt lat="50.2553" lon="4.91965">
        <ele>196</ele>
        <time>2026-08-24T13:20:55+00:00</time>
      </trkpt>
      <trkpt lat="50.25513" lon="4.91975">
        <ele>196</ele>
        <time>2026-08-24T13:20:58+00:00</time>
      </trkpt>
      <trkpt lat="50.25501" lon="4.9198">
        <ele>196</ele>
        <time>2026-08-24T13:21:01+00:00</time>
      </trkpt>
      <trkpt lat="50.2549" lon="4.91986">
        <ele>196</ele>
        <time>2026-08-24T13:21:04+00:00</time>
      </trkpt>
      <trkpt lat="50.25472" lon="4.91987">
        <ele>196</ele>
        <time>2026-08-24T13:21:07+00:00</time>
      </trkpt>
      <trkpt lat="50.25451" lon="4.91994">
        <ele>195</ele>
        <time>2026-08-24T13:21:10+00:00</time>
      </trkpt>
      <trkpt lat="50.25438" lon="4.91995">
        <ele>193</ele>
        <time>2026-08-24T13:21:13+00:00</time>
      </trkpt>
      <trkpt lat="50.2543" lon="4.91998">
        <ele>193</ele>
        <time>2026-08-24T13:21:16+00:00</time>
      </trkpt>
      <trkpt lat="50.25422" lon="4.92002">
        <ele>191</ele>
        <time>2026-08-24T13:21:19+00:00</time>
      </trkpt>
      <trkpt lat="50.25416" lon="4.92002">
        <ele>189</ele>
        <time>2026-08-24T13:21:22+00:00</time>
      </trkpt>
      <trkpt lat="50.25408" lon="4.91997">
        <ele>186</ele>
        <time>2026-08-24T13:21:25+00:00</time>
      </trkpt>
      <trkpt lat="50.25404" lon="4.91998">
        <ele>186</ele>
        <time>2026-08-24T13:21:28+00:00</time>
      </trkpt>
      <trkpt lat="50.25401" lon="4.92">
        <ele>187</ele>
        <time>2026-08-24T13:21:31+00:00</time>
      </trkpt>
      <trkpt lat="50.25396" lon="4.92005">
        <ele>185</ele>
        <time>2026-08-24T13:21:34+00:00</time>
      </trkpt>
      <trkpt lat="50.25388" lon="4.92025">
        <ele>185</ele>
        <time>2026-08-24T13:21:37+00:00</time>
      </trkpt>
      <trkpt lat="50.25385" lon="4.92041">
        <ele>186</ele>
        <time>2026-08-24T13:21:40+00:00</time>
      </trkpt>
      <trkpt lat="50.25382" lon="4.92049">
        <ele>186</ele>
        <time>2026-08-24T13:21:43+00:00</time>
      </trkpt>
      <trkpt lat="50.25374" lon="4.92066">
        <ele>183</ele>
        <time>2026-08-24T13:21:46+00:00</time>
      </trkpt>
      <trkpt lat="50.25373" lon="4.92072">
        <ele>183</ele>
        <time>2026-08-24T13:21:49+00:00</time>
      </trkpt>
      <trkpt lat="50.25375" lon="4.92083">
        <ele>182</ele>
        <time>2026-08-24T13:21:52+00:00</time>
      </trkpt>
      <trkpt lat="50.25373" lon="4.92092">
        <ele>180</ele>
        <time>2026-08-24T13:21:55+00:00</time>
      </trkpt>
      <trkpt lat="50.25373" lon="4.921">
        <ele>180</ele>
        <time>2026-08-24T13:21:58+00:00</time>
      </trkpt>
      <trkpt lat="50.25376" lon="4.92107">
        <ele>180</ele>
        <time>2026-08-24T13:22:01+00:00</time>
      </trkpt>
      <trkpt lat="50.25368" lon="4.92124">
        <ele>179</ele>
        <time>2026-08-24T13:22:04+00:00</time>
      </trkpt>
      <trkpt lat="50.25338" lon="4.92154">
        <ele>182</ele>
        <time>2026-08-24T13:22:07+00:00</time>
      </trkpt>
      <trkpt lat="50.2533" lon="4.92161">
        <ele>180</ele>
        <time>2026-08-24T13:22:10+00:00</time>
      </trkpt>
      <trkpt lat="50.25342" lon="4.92201">
        <ele>186</ele>
        <time>2026-08-24T13:22:13+00:00</time>
      </trkpt>
      <trkpt lat="50.25353" lon="4.92241">
        <ele>193</ele>
        <time>2026-08-24T13:22:16+00:00</time>
      </trkpt>
      <trkpt lat="50.25371" lon="4.92302">
        <ele>195</ele>
        <time>2026-08-24T13:22:19+00:00</time>
      </trkpt>
      <trkpt lat="50.25385" lon="4.9236">
        <ele>198</ele>
        <time>2026-08-24T13:22:22+00:00</time>
      </trkpt>
      <trkpt lat="50.25389" lon="4.92423">
        <ele>198</ele>
        <time>2026-08-24T13:22:25+00:00</time>
      </trkpt>
      <trkpt lat="50.25389" lon="4.9244">
        <ele>199</ele>
        <time>2026-08-24T13:22:28+00:00</time>
      </trkpt>
      <trkpt lat="50.25388" lon="4.92455">
        <ele>199</ele>
        <time>2026-08-24T13:22:31+00:00</time>
      </trkpt>
      <trkpt lat="50.25385" lon="4.92472">
        <ele>201</ele>
        <time>2026-08-24T13:22:34+00:00</time>
      </trkpt>
      <trkpt lat="50.2538" lon="4.92489">
        <ele>202</ele>
        <time>2026-08-24T13:22:37+00:00</time>
      </trkpt>
      <trkpt lat="50.25359" lon="4.9254">
        <ele>206</ele>
        <time>2026-08-24T13:22:40+00:00</time>
      </trkpt>
      <trkpt lat="50.25358" lon="4.92549">
        <ele>206</ele>
        <time>2026-08-24T13:22:43+00:00</time>
      </trkpt>
      <trkpt lat="50.25363" lon="4.92598">
        <ele>213</ele>
        <time>2026-08-24T13:22:46+00:00</time>
      </trkpt>
      <trkpt lat="50.25367" lon="4.92631">
        <ele>215</ele>
        <time>2026-08-24T13:22:49+00:00</time>
      </trkpt>
      <trkpt lat="50.25372" lon="4.92664">
        <ele>217</ele>
        <time>2026-08-24T13:22:52+00:00</time>
      </trkpt>
      <trkpt lat="50.25382" lon="4.92709">
        <ele>219</ele>
        <time>2026-08-24T13:22:55+00:00</time>
      </trkpt>
      <trkpt lat="50.25388" lon="4.92744">
        <ele>220</ele>
        <time>2026-08-24T13:22:58+00:00</time>
      </trkpt>
      <trkpt lat="50.25396" lon="4.92782">
        <ele>222</ele>
        <time>2026-08-24T13:23:01+00:00</time>
      </trkpt>
      <trkpt lat="50.25407" lon="4.92835">
        <ele>223</ele>
        <time>2026-08-24T13:23:04+00:00</time>
      </trkpt>
      <trkpt lat="50.25416" lon="4.92882">
        <ele>224</ele>
        <time>2026-08-24T13:23:07+00:00</time>
      </trkpt>
      <trkpt lat="50.25425" lon="4.92928">
        <ele>225</ele>
        <time>2026-08-24T13:23:10+00:00</time>
      </trkpt>
      <trkpt lat="50.25439" lon="4.93002">
        <ele>226</ele>
        <time>2026-08-24T13:23:13+00:00</time>
      </trkpt>
      <trkpt lat="50.25444" lon="4.93009">
        <ele>226</ele>
        <time>2026-08-24T13:23:16+00:00</time>
      </trkpt>
      <trkpt lat="50.25445" lon="4.93037">
        <ele>226</ele>
        <time>2026-08-24T13:23:19+00:00</time>
      </trkpt>
      <trkpt lat="50.25435" lon="4.93031">
        <ele>227</ele>
        <time>2026-08-24T13:23:22+00:00</time>
      </trkpt>
      <trkpt lat="50.25418" lon="4.93018">
        <ele>228</ele>
        <time>2026-08-24T13:23:25+00:00</time>
      </trkpt>
      <trkpt lat="50.25397" lon="4.93002">
        <ele>229</ele>
        <time>2026-08-24T13:23:28+00:00</time>
      </trkpt>
      <trkpt lat="50.25372" lon="4.92981">
        <ele>229</ele>
        <time>2026-08-24T13:23:31+00:00</time>
      </trkpt>
      <trkpt lat="50.25323" lon="4.92941">
        <ele>231</ele>
        <time>2026-08-24T13:23:34+00:00</time>
      </trkpt>
      <trkpt lat="50.25301" lon="4.92925">
        <ele>231</ele>
        <time>2026-08-24T13:23:37+00:00</time>
      </trkpt>
      <trkpt lat="50.25271" lon="4.92904">
        <ele>233</ele>
        <time>2026-08-24T13:23:40+00:00</time>
      </trkpt>
      <trkpt lat="50.2525" lon="4.92887">
        <ele>235</ele>
        <time>2026-08-24T13:23:43+00:00</time>
      </trkpt>
      <trkpt lat="50.25223" lon="4.92867">
        <ele>237</ele>
        <time>2026-08-24T13:23:46+00:00</time>
      </trkpt>
      <trkpt lat="50.25194" lon="4.92844">
        <ele>238</ele>
        <time>2026-08-24T13:23:49+00:00</time>
      </trkpt>
      <trkpt lat="50.25166" lon="4.92822">
        <ele>238</ele>
        <time>2026-08-24T13:23:52+00:00</time>
      </trkpt>
      <trkpt lat="50.25111" lon="4.92778">
        <ele>239</ele>
        <time>2026-08-24T13:23:55+00:00</time>
      </trkpt>
      <trkpt lat="50.25086" lon="4.92761">
        <ele>239</ele>
        <time>2026-08-24T13:23:58+00:00</time>
      </trkpt>
      <trkpt lat="50.25068" lon="4.9275">
        <ele>239</ele>
        <time>2026-08-24T13:24:01+00:00</time>
      </trkpt>
      <trkpt lat="50.2503" lon="4.92749">
        <ele>237</ele>
        <time>2026-08-24T13:24:04+00:00</time>
      </trkpt>
      <trkpt lat="50.25005" lon="4.92745">
        <ele>234</ele>
        <time>2026-08-24T13:24:07+00:00</time>
      </trkpt>
      <trkpt lat="50.24968" lon="4.92739">
        <ele>230</ele>
        <time>2026-08-24T13:24:10+00:00</time>
      </trkpt>
      <trkpt lat="50.24945" lon="4.92736">
        <ele>227</ele>
        <time>2026-08-24T13:24:13+00:00</time>
      </trkpt>
      <trkpt lat="50.24918" lon="4.92731">
        <ele>224</ele>
        <time>2026-08-24T13:24:16+00:00</time>
      </trkpt>
      <trkpt lat="50.24871" lon="4.92722">
        <ele>220</ele>
        <time>2026-08-24T13:24:19+00:00</time>
      </trkpt>
      <trkpt lat="50.24839" lon="4.92718">
        <ele>217</ele>
        <time>2026-08-24T13:24:22+00:00</time>
      </trkpt>
      <trkpt lat="50.24815" lon="4.92709">
        <ele>215</ele>
        <time>2026-08-24T13:24:25+00:00</time>
      </trkpt>
      <trkpt lat="50.24803" lon="4.92696">
        <ele>213</ele>
        <time>2026-08-24T13:24:28+00:00</time>
      </trkpt>
      <trkpt lat="50.24795" lon="4.92677">
        <ele>211</ele>
        <time>2026-08-24T13:24:31+00:00</time>
      </trkpt>
      <trkpt lat="50.24788" lon="4.92658">
        <ele>210</ele>
        <time>2026-08-24T13:24:34+00:00</time>
      </trkpt>
      <trkpt lat="50.24774" lon="4.92643">
        <ele>209</ele>
        <time>2026-08-24T13:24:37+00:00</time>
      </trkpt>
      <trkpt lat="50.24767" lon="4.92638">
        <ele>208</ele>
        <time>2026-08-24T13:24:40+00:00</time>
      </trkpt>
      <trkpt lat="50.24754" lon="4.92637">
        <ele>207</ele>
        <time>2026-08-24T13:24:43+00:00</time>
      </trkpt>
      <trkpt lat="50.24737" lon="4.92623">
        <ele>206</ele>
        <time>2026-08-24T13:24:46+00:00</time>
      </trkpt>
      <trkpt lat="50.24715" lon="4.92605">
        <ele>205</ele>
        <time>2026-08-24T13:24:49+00:00</time>
      </trkpt>
      <trkpt lat="50.24687" lon="4.92581">
        <ele>204</ele>
        <time>2026-08-24T13:24:52+00:00</time>
      </trkpt>
      <trkpt lat="50.24665" lon="4.92567">
        <ele>204</ele>
        <time>2026-08-24T13:24:55+00:00</time>
      </trkpt>
      <trkpt lat="50.2464" lon="4.9255">
        <ele>202</ele>
        <time>2026-08-24T13:24:58+00:00</time>
      </trkpt>
      <trkpt lat="50.24615" lon="4.92535">
        <ele>202</ele>
        <time>2026-08-24T13:25:01+00:00</time>
      </trkpt>
      <trkpt lat="50.24583" lon="4.92514">
        <ele>205</ele>
        <time>2026-08-24T13:25:04+00:00</time>
      </trkpt>
      <trkpt lat="50.24566" lon="4.92506">
        <ele>216</ele>
        <time>2026-08-24T13:25:07+00:00</time>
      </trkpt>
      <trkpt lat="50.24548" lon="4.925">
        <ele>219</ele>
        <time>2026-08-24T13:25:10+00:00</time>
      </trkpt>
      <trkpt lat="50.24533" lon="4.92508">
        <ele>219</ele>
        <time>2026-08-24T13:25:13+00:00</time>
      </trkpt>
      <trkpt lat="50.24521" lon="4.92504">
        <ele>219</ele>
        <time>2026-08-24T13:25:16+00:00</time>
      </trkpt>
      <trkpt lat="50.24508" lon="4.92497">
        <ele>217</ele>
        <time>2026-08-24T13:25:19+00:00</time>
      </trkpt>
      <trkpt lat="50.2449" lon="4.92466">
        <ele>219</ele>
        <time>2026-08-24T13:25:22+00:00</time>
      </trkpt>
      <trkpt lat="50.24488" lon="4.92469">
        <ele>213</ele>
        <time>2026-08-24T13:25:25+00:00</time>
      </trkpt>
      <trkpt lat="50.24491" lon="4.92479">
        <ele>217</ele>
        <time>2026-08-24T13:25:28+00:00</time>
      </trkpt>
      <trkpt lat="50.24489" lon="4.92485">
        <ele>209</ele>
        <time>2026-08-24T13:25:31+00:00</time>
      </trkpt>
      <trkpt lat="50.24482" lon="4.92477">
        <ele>211</ele>
        <time>2026-08-24T13:25:34+00:00</time>
      </trkpt>
      <trkpt lat="50.24479" lon="4.92484">
        <ele>205</ele>
        <time>2026-08-24T13:25:37+00:00</time>
      </trkpt>
      <trkpt lat="50.24482" lon="4.92503">
        <ele>205</ele>
        <time>2026-08-24T13:25:40+00:00</time>
      </trkpt>
      <trkpt lat="50.2448" lon="4.92506">
        <ele>205</ele>
        <time>2026-08-24T13:25:43+00:00</time>
      </trkpt>
      <trkpt lat="50.24467" lon="4.9249">
        <ele>198</ele>
        <time>2026-08-24T13:25:46+00:00</time>
      </trkpt>
      <trkpt lat="50.24452" lon="4.92476">
        <ele>194</ele>
        <time>2026-08-24T13:25:49+00:00</time>
      </trkpt>
      <trkpt lat="50.24437" lon="4.92455">
        <ele>180</ele>
        <time>2026-08-24T13:25:52+00:00</time>
      </trkpt>
      <trkpt lat="50.24428" lon="4.92415">
        <ele>175</ele>
        <time>2026-08-24T13:25:55+00:00</time>
      </trkpt>
      <trkpt lat="50.24422" lon="4.92443">
        <ele>174</ele>
        <time>2026-08-24T13:25:58+00:00</time>
      </trkpt>
      <trkpt lat="50.24419" lon="4.92414">
        <ele>170</ele>
        <time>2026-08-24T13:26:01+00:00</time>
      </trkpt>
      <trkpt lat="50.2441" lon="4.92435">
        <ele>169</ele>
        <time>2026-08-24T13:26:04+00:00</time>
      </trkpt>
      <trkpt lat="50.24405" lon="4.92398">
        <ele>162</ele>
        <time>2026-08-24T13:26:07+00:00</time>
      </trkpt>
      <trkpt lat="50.244" lon="4.92414">
        <ele>162</ele>
        <time>2026-08-24T13:26:10+00:00</time>
      </trkpt>
      <trkpt lat="50.24396" lon="4.92436">
        <ele>158</ele>
        <time>2026-08-24T13:26:13+00:00</time>
      </trkpt>
      <trkpt lat="50.24395" lon="4.92452">
        <ele>158</ele>
        <time>2026-08-24T13:26:16+00:00</time>
      </trkpt>
      <trkpt lat="50.24396" lon="4.92477">
        <ele>155</ele>
        <time>2026-08-24T13:26:19+00:00</time>
      </trkpt>
      <trkpt lat="50.24393" lon="4.92479">
        <ele>155</ele>
        <time>2026-08-24T13:26:22+00:00</time>
      </trkpt>
      <trkpt lat="50.24386" lon="4.92463">
        <ele>149</ele>
        <time>2026-08-24T13:26:25+00:00</time>
      </trkpt>
      <trkpt lat="50.24381" lon="4.92441">
        <ele>149</ele>
        <time>2026-08-24T13:26:28+00:00</time>
      </trkpt>
      <trkpt lat="50.24372" lon="4.92384">
        <ele>138</ele>
        <time>2026-08-24T13:26:31+00:00</time>
      </trkpt>
      <trkpt lat="50.24369" lon="4.92353">
        <ele>131</ele>
        <time>2026-08-24T13:26:34+00:00</time>
      </trkpt>
      <trkpt lat="50.24364" lon="4.92312">
        <ele>129</ele>
        <time>2026-08-24T13:26:37+00:00</time>
      </trkpt>
      <trkpt lat="50.24363" lon="4.92311">
        <ele>129</ele>
        <time>2026-08-24T13:26:40+00:00</time>
      </trkpt>
      <trkpt lat="50.24358" lon="4.92334">
        <ele>121</ele>
        <time>2026-08-24T13:26:43+00:00</time>
      </trkpt>
      <trkpt lat="50.24352" lon="4.92367">
        <ele>120</ele>
        <time>2026-08-24T13:26:46+00:00</time>
      </trkpt>
      <trkpt lat="50.24347" lon="4.92385">
        <ele>107</ele>
        <time>2026-08-24T13:26:49+00:00</time>
      </trkpt>
      <trkpt lat="50.24344" lon="4.9241">
        <ele>109</ele>
        <time>2026-08-24T13:26:52+00:00</time>
      </trkpt>
      <trkpt lat="50.24341" lon="4.92424">
        <ele>109</ele>
        <time>2026-08-24T13:26:55+00:00</time>
      </trkpt>
      <trkpt lat="50.24339" lon="4.92424">
        <ele>102</ele>
        <time>2026-08-24T13:26:58+00:00</time>
      </trkpt>
      <trkpt lat="50.24336" lon="4.92403">
        <ele>100</ele>
        <time>2026-08-24T13:27:01+00:00</time>
      </trkpt>
      <trkpt lat="50.24332" lon="4.92361">
        <ele>98</ele>
        <time>2026-08-24T13:27:04+00:00</time>
      </trkpt>
      <trkpt lat="50.2433" lon="4.92351">
        <ele>98</ele>
        <time>2026-08-24T13:27:07+00:00</time>
      </trkpt>
      <trkpt lat="50.24329" lon="4.92331">
        <ele>98</ele>
        <time>2026-08-24T13:27:10+00:00</time>
      </trkpt>
      <trkpt lat="50.24323" lon="4.92331">
        <ele>97</ele>
        <time>2026-08-24T13:27:13+00:00</time>
      </trkpt>
      <trkpt lat="50.24324" lon="4.92365">
        <ele>98</ele>
        <time>2026-08-24T13:27:16+00:00</time>
      </trkpt>
      <trkpt lat="50.24325" lon="4.92411">
        <ele>99</ele>
        <time>2026-08-24T13:27:19+00:00</time>
      </trkpt>
      <trkpt lat="50.24325" lon="4.92454">
        <ele>100</ele>
        <time>2026-08-24T13:27:22+00:00</time>
      </trkpt>
      <trkpt lat="50.24324" lon="4.92529">
        <ele>109</ele>
        <time>2026-08-24T13:27:25+00:00</time>
      </trkpt>
      <trkpt lat="50.24324" lon="4.9257">
        <ele>118</ele>
        <time>2026-08-24T13:27:28+00:00</time>
      </trkpt>
      <trkpt lat="50.24325" lon="4.92585">
        <ele>119</ele>
        <time>2026-08-24T13:27:31+00:00</time>
      </trkpt>
      <trkpt lat="50.24328" lon="4.92601">
        <ele>118</ele>
        <time>2026-08-24T13:27:34+00:00</time>
      </trkpt>
      <trkpt lat="50.24332" lon="4.92609">
        <ele>121</ele>
        <time>2026-08-24T13:27:37+00:00</time>
      </trkpt>
      <trkpt lat="50.24349" lon="4.92637">
        <ele>119</ele>
        <time>2026-08-24T13:27:40+00:00</time>
      </trkpt>
      <trkpt lat="50.24376" lon="4.92682">
        <ele>118</ele>
        <time>2026-08-24T13:27:43+00:00</time>
      </trkpt>
      <trkpt lat="50.2439" lon="4.92709">
        <ele>118</ele>
        <time>2026-08-24T13:27:46+00:00</time>
      </trkpt>
      <trkpt lat="50.24405" lon="4.92737">
        <ele>126</ele>
        <time>2026-08-24T13:27:49+00:00</time>
      </trkpt>
      <trkpt lat="50.24399" lon="4.92737">
        <ele>131</ele>
        <time>2026-08-24T13:27:52+00:00</time>
      </trkpt>
      <trkpt lat="50.24379" lon="4.92717">
        <ele>136</ele>
        <time>2026-08-24T13:27:55+00:00</time>
      </trkpt>
      <trkpt lat="50.2435" lon="4.92687">
        <ele>137</ele>
        <time>2026-08-24T13:27:58+00:00</time>
      </trkpt>
      <trkpt lat="50.24331" lon="4.92672">
        <ele>138</ele>
        <time>2026-08-24T13:28:01+00:00</time>
      </trkpt>
      <trkpt lat="50.24311" lon="4.92656">
        <ele>142</ele>
        <time>2026-08-24T13:28:04+00:00</time>
      </trkpt>
      <trkpt lat="50.24283" lon="4.92629">
        <ele>148</ele>
        <time>2026-08-24T13:28:07+00:00</time>
      </trkpt>
      <trkpt lat="50.24262" lon="4.92597">
        <ele>154</ele>
        <time>2026-08-24T13:28:10+00:00</time>
      </trkpt>
      <trkpt lat="50.24248" lon="4.92553">
        <ele>159</ele>
        <time>2026-08-24T13:28:13+00:00</time>
      </trkpt>
      <trkpt lat="50.2424" lon="4.92513">
        <ele>160</ele>
        <time>2026-08-24T13:28:16+00:00</time>
      </trkpt>
      <trkpt lat="50.24227" lon="4.9245">
        <ele>163</ele>
        <time>2026-08-24T13:28:19+00:00</time>
      </trkpt>
      <trkpt lat="50.24218" lon="4.92418">
        <ele>164</ele>
        <time>2026-08-24T13:28:22+00:00</time>
      </trkpt>
      <trkpt lat="50.24208" lon="4.92382">
        <ele>169</ele>
        <time>2026-08-24T13:28:25+00:00</time>
      </trkpt>
      <trkpt lat="50.24193" lon="4.92326">
        <ele>168</ele>
        <time>2026-08-24T13:28:28+00:00</time>
      </trkpt>
      <trkpt lat="50.24173" lon="4.92289">
        <ele>167</ele>
        <time>2026-08-24T13:28:31+00:00</time>
      </trkpt>
      <trkpt lat="50.24161" lon="4.92282">
        <ele>163</ele>
        <time>2026-08-24T13:28:34+00:00</time>
      </trkpt>
      <trkpt lat="50.24154" lon="4.92283">
        <ele>166</ele>
        <time>2026-08-24T13:28:37+00:00</time>
      </trkpt>
      <trkpt lat="50.24146" lon="4.92294">
        <ele>160</ele>
        <time>2026-08-24T13:28:40+00:00</time>
      </trkpt>
      <trkpt lat="50.24154" lon="4.92313">
        <ele>166</ele>
        <time>2026-08-24T13:28:43+00:00</time>
      </trkpt>
      <trkpt lat="50.24168" lon="4.92358">
        <ele>167</ele>
        <time>2026-08-24T13:28:46+00:00</time>
      </trkpt>
      <trkpt lat="50.24173" lon="4.92383">
        <ele>173</ele>
        <time>2026-08-24T13:28:49+00:00</time>
      </trkpt>
      <trkpt lat="50.24174" lon="4.92405">
        <ele>176</ele>
        <time>2026-08-24T13:28:52+00:00</time>
      </trkpt>
      <trkpt lat="50.24175" lon="4.92428">
        <ele>178</ele>
        <time>2026-08-24T13:28:55+00:00</time>
      </trkpt>
      <trkpt lat="50.2418" lon="4.92472">
        <ele>180</ele>
        <time>2026-08-24T13:28:58+00:00</time>
      </trkpt>
      <trkpt lat="50.2418" lon="4.92504">
        <ele>186</ele>
        <time>2026-08-24T13:29:01+00:00</time>
      </trkpt>
      <trkpt lat="50.24182" lon="4.92513">
        <ele>182</ele>
        <time>2026-08-24T13:29:04+00:00</time>
      </trkpt>
      <trkpt lat="50.24187" lon="4.92522">
        <ele>184</ele>
        <time>2026-08-24T13:29:07+00:00</time>
      </trkpt>
      <trkpt lat="50.2419" lon="4.9253">
        <ele>187</ele>
        <time>2026-08-24T13:29:10+00:00</time>
      </trkpt>
      <trkpt lat="50.24195" lon="4.92568">
        <ele>192</ele>
        <time>2026-08-24T13:29:13+00:00</time>
      </trkpt>
      <trkpt lat="50.24196" lon="4.92582">
        <ele>194</ele>
        <time>2026-08-24T13:29:16+00:00</time>
      </trkpt>
      <trkpt lat="50.24196" lon="4.92597">
        <ele>192</ele>
        <time>2026-08-24T13:29:19+00:00</time>
      </trkpt>
      <trkpt lat="50.24189" lon="4.92624">
        <ele>192</ele>
        <time>2026-08-24T13:29:22+00:00</time>
      </trkpt>
      <trkpt lat="50.24181" lon="4.92652">
        <ele>192</ele>
        <time>2026-08-24T13:29:25+00:00</time>
      </trkpt>
      <trkpt lat="50.24175" lon="4.92682">
        <ele>200</ele>
        <time>2026-08-24T13:29:28+00:00</time>
      </trkpt>
      <trkpt lat="50.24176" lon="4.92703">
        <ele>200</ele>
        <time>2026-08-24T13:29:31+00:00</time>
      </trkpt>
      <trkpt lat="50.24186" lon="4.92736">
        <ele>200</ele>
        <time>2026-08-24T13:29:34+00:00</time>
      </trkpt>
      <trkpt lat="50.24189" lon="4.92766">
        <ele>202</ele>
        <time>2026-08-24T13:29:37+00:00</time>
      </trkpt>
      <trkpt lat="50.24198" lon="4.92814">
        <ele>205</ele>
        <time>2026-08-24T13:29:40+00:00</time>
      </trkpt>
      <trkpt lat="50.24181" lon="4.92784">
        <ele>207</ele>
        <time>2026-08-24T13:29:43+00:00</time>
      </trkpt>
      <trkpt lat="50.24156" lon="4.9274">
        <ele>211</ele>
        <time>2026-08-24T13:29:46+00:00</time>
      </trkpt>
      <trkpt lat="50.24152" lon="4.92709">
        <ele>215</ele>
        <time>2026-08-24T13:29:49+00:00</time>
      </trkpt>
      <trkpt lat="50.24146" lon="4.92687">
        <ele>218</ele>
        <time>2026-08-24T13:29:52+00:00</time>
      </trkpt>
      <trkpt lat="50.24135" lon="4.92658">
        <ele>215</ele>
        <time>2026-08-24T13:29:55+00:00</time>
      </trkpt>
      <trkpt lat="50.24117" lon="4.92611">
        <ele>212</ele>
        <time>2026-08-24T13:29:58+00:00</time>
      </trkpt>
      <trkpt lat="50.24111" lon="4.92639">
        <ele>215</ele>
        <time>2026-08-24T13:30:01+00:00</time>
      </trkpt>
      <trkpt lat="50.24108" lon="4.92701">
        <ele>219</ele>
        <time>2026-08-24T13:30:04+00:00</time>
      </trkpt>
      <trkpt lat="50.24105" lon="4.92706">
        <ele>219</ele>
        <time>2026-08-24T13:30:07+00:00</time>
      </trkpt>
      <trkpt lat="50.24103" lon="4.92716">
        <ele>220</ele>
        <time>2026-08-24T13:30:10+00:00</time>
      </trkpt>
      <trkpt lat="50.24099" lon="4.9272">
        <ele>219</ele>
        <time>2026-08-24T13:30:13+00:00</time>
      </trkpt>
      <trkpt lat="50.24092" lon="4.92723">
        <ele>220</ele>
        <time>2026-08-24T13:30:16+00:00</time>
      </trkpt>
      <trkpt lat="50.2409" lon="4.92725">
        <ele>220</ele>
        <time>2026-08-24T13:30:19+00:00</time>
      </trkpt>
      <trkpt lat="50.24089" lon="4.92728">
        <ele>216</ele>
        <time>2026-08-24T13:30:22+00:00</time>
      </trkpt>
      <trkpt lat="50.24093" lon="4.92765">
        <ele>219</ele>
        <time>2026-08-24T13:30:25+00:00</time>
      </trkpt>
      <trkpt lat="50.24092" lon="4.9278">
        <ele>223</ele>
        <time>2026-08-24T13:30:28+00:00</time>
      </trkpt>
      <trkpt lat="50.24089" lon="4.92794">
        <ele>221</ele>
        <time>2026-08-24T13:30:31+00:00</time>
      </trkpt>
      <trkpt lat="50.24092" lon="4.92805">
        <ele>225</ele>
        <time>2026-08-24T13:30:34+00:00</time>
      </trkpt>
      <trkpt lat="50.24092" lon="4.92815">
        <ele>224</ele>
        <time>2026-08-24T13:30:37+00:00</time>
      </trkpt>
      <trkpt lat="50.24091" lon="4.9282">
        <ele>220</ele>
        <time>2026-08-24T13:30:40+00:00</time>
      </trkpt>
      <trkpt lat="50.24085" lon="4.92823">
        <ele>221</ele>
        <time>2026-08-24T13:30:43+00:00</time>
      </trkpt>
      <trkpt lat="50.24072" lon="4.92824">
        <ele>219</ele>
        <time>2026-08-24T13:30:46+00:00</time>
      </trkpt>
      <trkpt lat="50.24044" lon="4.92814">
        <ele>218</ele>
        <time>2026-08-24T13:30:49+00:00</time>
      </trkpt>
      <trkpt lat="50.24039" lon="4.92818">
        <ele>217</ele>
        <time>2026-08-24T13:30:52+00:00</time>
      </trkpt>
      <trkpt lat="50.24036" lon="4.92828">
        <ele>217</ele>
        <time>2026-08-24T13:30:55+00:00</time>
      </trkpt>
      <trkpt lat="50.24017" lon="4.92836">
        <ele>217</ele>
        <time>2026-08-24T13:30:58+00:00</time>
      </trkpt>
      <trkpt lat="50.24001" lon="4.92872">
        <ele>217</ele>
        <time>2026-08-24T13:31:01+00:00</time>
      </trkpt>
      <trkpt lat="50.23989" lon="4.92883">
        <ele>217</ele>
        <time>2026-08-24T13:31:04+00:00</time>
      </trkpt>
      <trkpt lat="50.23979" lon="4.92902">
        <ele>216</ele>
        <time>2026-08-24T13:31:07+00:00</time>
      </trkpt>
      <trkpt lat="50.23969" lon="4.92933">
        <ele>213</ele>
        <time>2026-08-24T13:31:10+00:00</time>
      </trkpt>
      <trkpt lat="50.23959" lon="4.92967">
        <ele>212</ele>
        <time>2026-08-24T13:31:13+00:00</time>
      </trkpt>
      <trkpt lat="50.23968" lon="4.93027">
        <ele>212</ele>
        <time>2026-08-24T13:31:16+00:00</time>
      </trkpt>
      <trkpt lat="50.2396" lon="4.93057">
        <ele>210</ele>
        <time>2026-08-24T13:31:19+00:00</time>
      </trkpt>
      <trkpt lat="50.23948" lon="4.93091">
        <ele>209</ele>
        <time>2026-08-24T13:31:22+00:00</time>
      </trkpt>
      <trkpt lat="50.23934" lon="4.93091">
        <ele>208</ele>
        <time>2026-08-24T13:31:25+00:00</time>
      </trkpt>
      <trkpt lat="50.23919" lon="4.93061">
        <ele>207</ele>
        <time>2026-08-24T13:31:28+00:00</time>
      </trkpt>
      <trkpt lat="50.23921" lon="4.93024">
        <ele>207</ele>
        <time>2026-08-24T13:31:31+00:00</time>
      </trkpt>
      <trkpt lat="50.23923" lon="4.9298">
        <ele>204</ele>
        <time>2026-08-24T13:31:34+00:00</time>
      </trkpt>
      <trkpt lat="50.23928" lon="4.92933">
        <ele>201</ele>
        <time>2026-08-24T13:31:37+00:00</time>
      </trkpt>
      <trkpt lat="50.23933" lon="4.92886">
        <ele>200</ele>
        <time>2026-08-24T13:31:40+00:00</time>
      </trkpt>
      <trkpt lat="50.23941" lon="4.92817">
        <ele>192</ele>
        <time>2026-08-24T13:31:43+00:00</time>
      </trkpt>
      <trkpt lat="50.23937" lon="4.92781">
        <ele>191</ele>
        <time>2026-08-24T13:31:46+00:00</time>
      </trkpt>
      <trkpt lat="50.23932" lon="4.92739">
        <ele>189</ele>
        <time>2026-08-24T13:31:49+00:00</time>
      </trkpt>
      <trkpt lat="50.23932" lon="4.92736">
        <ele>189</ele>
        <time>2026-08-24T13:31:52+00:00</time>
      </trkpt>
      <trkpt lat="50.23937" lon="4.92696">
        <ele>186</ele>
        <time>2026-08-24T13:31:55+00:00</time>
      </trkpt>
      <trkpt lat="50.23944" lon="4.92634">
        <ele>184</ele>
        <time>2026-08-24T13:31:58+00:00</time>
      </trkpt>
      <trkpt lat="50.23951" lon="4.92604">
        <ele>183</ele>
        <time>2026-08-24T13:32:01+00:00</time>
      </trkpt>
      <trkpt lat="50.2396" lon="4.92582">
        <ele>182</ele>
        <time>2026-08-24T13:32:04+00:00</time>
      </trkpt>
      <trkpt lat="50.23965" lon="4.92567">
        <ele>181</ele>
        <time>2026-08-24T13:32:07+00:00</time>
      </trkpt>
      <trkpt lat="50.23968" lon="4.92527">
        <ele>176</ele>
        <time>2026-08-24T13:32:10+00:00</time>
      </trkpt>
      <trkpt lat="50.23978" lon="4.92485">
        <ele>175</ele>
        <time>2026-08-24T13:32:13+00:00</time>
      </trkpt>
      <trkpt lat="50.23987" lon="4.92454">
        <ele>174</ele>
        <time>2026-08-24T13:32:16+00:00</time>
      </trkpt>
      <trkpt lat="50.23996" lon="4.92442">
        <ele>174</ele>
        <time>2026-08-24T13:32:19+00:00</time>
      </trkpt>
      <trkpt lat="50.24018" lon="4.92426">
        <ele>170</ele>
        <time>2026-08-24T13:32:22+00:00</time>
      </trkpt>
      <trkpt lat="50.24025" lon="4.92419">
        <ele>167</ele>
        <time>2026-08-24T13:32:25+00:00</time>
      </trkpt>
      <trkpt lat="50.24041" lon="4.92396">
        <ele>164</ele>
        <time>2026-08-24T13:32:28+00:00</time>
      </trkpt>
      <trkpt lat="50.24049" lon="4.92376">
        <ele>165</ele>
        <time>2026-08-24T13:32:31+00:00</time>
      </trkpt>
      <trkpt lat="50.24053" lon="4.92359">
        <ele>165</ele>
        <time>2026-08-24T13:32:34+00:00</time>
      </trkpt>
      <trkpt lat="50.24046" lon="4.92324">
        <ele>165</ele>
        <time>2026-08-24T13:32:37+00:00</time>
      </trkpt>
      <trkpt lat="50.24044" lon="4.92281">
        <ele>165</ele>
        <time>2026-08-24T13:32:40+00:00</time>
      </trkpt>
      <trkpt lat="50.2404" lon="4.92261">
        <ele>165</ele>
        <time>2026-08-24T13:32:43+00:00</time>
      </trkpt>
      <trkpt lat="50.24024" lon="4.92248">
        <ele>165</ele>
        <time>2026-08-24T13:32:46+00:00</time>
      </trkpt>
      <trkpt lat="50.24005" lon="4.92233">
        <ele>164</ele>
        <time>2026-08-24T13:32:49+00:00</time>
      </trkpt>
      <trkpt lat="50.23991" lon="4.92245">
        <ele>165</ele>
        <time>2026-08-24T13:32:52+00:00</time>
      </trkpt>
      <trkpt lat="50.23981" lon="4.9227">
        <ele>166</ele>
        <time>2026-08-24T13:32:55+00:00</time>
      </trkpt>
      <trkpt lat="50.23966" lon="4.92307">
        <ele>165</ele>
        <time>2026-08-24T13:32:58+00:00</time>
      </trkpt>
      <trkpt lat="50.23955" lon="4.9234">
        <ele>165</ele>
        <time>2026-08-24T13:33:01+00:00</time>
      </trkpt>
      <trkpt lat="50.23942" lon="4.92382">
        <ele>165</ele>
        <time>2026-08-24T13:33:04+00:00</time>
      </trkpt>
      <trkpt lat="50.23929" lon="4.92433">
        <ele>183</ele>
        <time>2026-08-24T13:33:07+00:00</time>
      </trkpt>
      <trkpt lat="50.23922" lon="4.92472">
        <ele>184</ele>
        <time>2026-08-24T13:33:10+00:00</time>
      </trkpt>
      <trkpt lat="50.23913" lon="4.92528">
        <ele>183</ele>
        <time>2026-08-24T13:33:13+00:00</time>
      </trkpt>
      <trkpt lat="50.23904" lon="4.92566">
        <ele>182</ele>
        <time>2026-08-24T13:33:16+00:00</time>
      </trkpt>
      <trkpt lat="50.2389" lon="4.92623">
        <ele>183</ele>
        <time>2026-08-24T13:33:19+00:00</time>
      </trkpt>
      <trkpt lat="50.23879" lon="4.92658">
        <ele>184</ele>
        <time>2026-08-24T13:33:22+00:00</time>
      </trkpt>
      <trkpt lat="50.23875" lon="4.92677">
        <ele>185</ele>
        <time>2026-08-24T13:33:25+00:00</time>
      </trkpt>
      <trkpt lat="50.23865" lon="4.92718">
        <ele>188</ele>
        <time>2026-08-24T13:33:28+00:00</time>
      </trkpt>
      <trkpt lat="50.23855" lon="4.92759">
        <ele>193</ele>
        <time>2026-08-24T13:33:31+00:00</time>
      </trkpt>
      <trkpt lat="50.23838" lon="4.9283">
        <ele>198</ele>
        <time>2026-08-24T13:33:34+00:00</time>
      </trkpt>
      <trkpt lat="50.23834" lon="4.92874">
        <ele>199</ele>
        <time>2026-08-24T13:33:37+00:00</time>
      </trkpt>
      <trkpt lat="50.2383" lon="4.92904">
        <ele>201</ele>
        <time>2026-08-24T13:33:40+00:00</time>
      </trkpt>
      <trkpt lat="50.23825" lon="4.92921">
        <ele>202</ele>
        <time>2026-08-24T13:33:43+00:00</time>
      </trkpt>
      <trkpt lat="50.23815" lon="4.92946">
        <ele>203</ele>
        <time>2026-08-24T13:33:46+00:00</time>
      </trkpt>
      <trkpt lat="50.2381" lon="4.92962">
        <ele>205</ele>
        <time>2026-08-24T13:33:49+00:00</time>
      </trkpt>
      <trkpt lat="50.23801" lon="4.92996">
        <ele>207</ele>
        <time>2026-08-24T13:33:52+00:00</time>
      </trkpt>
      <trkpt lat="50.23786" lon="4.93054">
        <ele>213</ele>
        <time>2026-08-24T13:33:55+00:00</time>
      </trkpt>
      <trkpt lat="50.23775" lon="4.93086">
        <ele>215</ele>
        <time>2026-08-24T13:33:58+00:00</time>
      </trkpt>
      <trkpt lat="50.23766" lon="4.93129">
        <ele>217</ele>
        <time>2026-08-24T13:34:01+00:00</time>
      </trkpt>
      <trkpt lat="50.23759" lon="4.93156">
        <ele>219</ele>
        <time>2026-08-24T13:34:04+00:00</time>
      </trkpt>
      <trkpt lat="50.23747" lon="4.93187">
        <ele>221</ele>
        <time>2026-08-24T13:34:07+00:00</time>
      </trkpt>
      <trkpt lat="50.23736" lon="4.93209">
        <ele>223</ele>
        <time>2026-08-24T13:34:10+00:00</time>
      </trkpt>
      <trkpt lat="50.23713" lon="4.93247">
        <ele>226</ele>
        <time>2026-08-24T13:34:13+00:00</time>
      </trkpt>
      <trkpt lat="50.23698" lon="4.93276">
        <ele>230</ele>
        <time>2026-08-24T13:34:16+00:00</time>
      </trkpt>
      <trkpt lat="50.2368" lon="4.93311">
        <ele>234</ele>
        <time>2026-08-24T13:34:19+00:00</time>
      </trkpt>
      <trkpt lat="50.23659" lon="4.93348">
        <ele>237</ele>
        <time>2026-08-24T13:34:22+00:00</time>
      </trkpt>
      <trkpt lat="50.23643" lon="4.9337">
        <ele>240</ele>
        <time>2026-08-24T13:34:25+00:00</time>
      </trkpt>
      <trkpt lat="50.23608" lon="4.93392">
        <ele>242</ele>
        <time>2026-08-24T13:34:28+00:00</time>
      </trkpt>
      <trkpt lat="50.23593" lon="4.93408">
        <ele>243</ele>
        <time>2026-08-24T13:34:31+00:00</time>
      </trkpt>
      <trkpt lat="50.23599" lon="4.93437">
        <ele>244</ele>
        <time>2026-08-24T13:34:34+00:00</time>
      </trkpt>
      <trkpt lat="50.23604" lon="4.93471">
        <ele>245</ele>
        <time>2026-08-24T13:34:37+00:00</time>
      </trkpt>
      <trkpt lat="50.23609" lon="4.93507">
        <ele>246</ele>
        <time>2026-08-24T13:34:40+00:00</time>
      </trkpt>
      <trkpt lat="50.23613" lon="4.93552">
        <ele>247</ele>
        <time>2026-08-24T13:34:43+00:00</time>
      </trkpt>
      <trkpt lat="50.23617" lon="4.93598">
        <ele>248</ele>
        <time>2026-08-24T13:34:46+00:00</time>
      </trkpt>
      <trkpt lat="50.23622" lon="4.9365">
        <ele>248</ele>
        <time>2026-08-24T13:34:49+00:00</time>
      </trkpt>
      <trkpt lat="50.23628" lon="4.93708">
        <ele>251</ele>
        <time>2026-08-24T13:34:52+00:00</time>
      </trkpt>
      <trkpt lat="50.23642" lon="4.93766">
        <ele>252</ele>
        <time>2026-08-24T13:34:55+00:00</time>
      </trkpt>
      <trkpt lat="50.23622" lon="4.93783">
        <ele>252</ele>
        <time>2026-08-24T13:34:58+00:00</time>
      </trkpt>
      <trkpt lat="50.23608" lon="4.93797">
        <ele>250</ele>
        <time>2026-08-24T13:35:01+00:00</time>
      </trkpt>
      <trkpt lat="50.23586" lon="4.9381">
        <ele>248</ele>
        <time>2026-08-24T13:35:04+00:00</time>
      </trkpt>
      <trkpt lat="50.23563" lon="4.93824">
        <ele>248</ele>
        <time>2026-08-24T13:35:07+00:00</time>
      </trkpt>
      <trkpt lat="50.23539" lon="4.93839">
        <ele>246</ele>
        <time>2026-08-24T13:35:10+00:00</time>
      </trkpt>
      <trkpt lat="50.23535" lon="4.93838">
        <ele>246</ele>
        <time>2026-08-24T13:35:13+00:00</time>
      </trkpt>
      <trkpt lat="50.23536" lon="4.93827">
        <ele>246</ele>
        <time>2026-08-24T13:35:16+00:00</time>
      </trkpt>
      <trkpt lat="50.23517" lon="4.9382">
        <ele>244</ele>
        <time>2026-08-24T13:35:19+00:00</time>
      </trkpt>
      <trkpt lat="50.23493" lon="4.93812">
        <ele>243</ele>
        <time>2026-08-24T13:35:22+00:00</time>
      </trkpt>
      <trkpt lat="50.23476" lon="4.93808">
        <ele>241</ele>
        <time>2026-08-24T13:35:25+00:00</time>
      </trkpt>
      <trkpt lat="50.23477" lon="4.93768">
        <ele>239</ele>
        <time>2026-08-24T13:35:28+00:00</time>
      </trkpt>
      <trkpt lat="50.23451" lon="4.93766">
        <ele>238</ele>
        <time>2026-08-24T13:35:31+00:00</time>
      </trkpt>
      <trkpt lat="50.2341" lon="4.93763">
        <ele>236</ele>
        <time>2026-08-24T13:35:34+00:00</time>
      </trkpt>
      <trkpt lat="50.23382" lon="4.93756">
        <ele>234</ele>
        <time>2026-08-24T13:35:37+00:00</time>
      </trkpt>
      <trkpt lat="50.23382" lon="4.93735">
        <ele>233</ele>
        <time>2026-08-24T13:35:40+00:00</time>
      </trkpt>
      <trkpt lat="50.23378" lon="4.93728">
        <ele>232</ele>
        <time>2026-08-24T13:35:43+00:00</time>
      </trkpt>
      <trkpt lat="50.23371" lon="4.93728">
        <ele>232</ele>
        <time>2026-08-24T13:35:46+00:00</time>
      </trkpt>
      <trkpt lat="50.2334" lon="4.93723">
        <ele>231</ele>
        <time>2026-08-24T13:35:49+00:00</time>
      </trkpt>
      <trkpt lat="50.23309" lon="4.93717">
        <ele>229</ele>
        <time>2026-08-24T13:35:52+00:00</time>
      </trkpt>
      <trkpt lat="50.23278" lon="4.93712">
        <ele>226</ele>
        <time>2026-08-24T13:35:55+00:00</time>
      </trkpt>
      <trkpt lat="50.23243" lon="4.93706">
        <ele>224</ele>
        <time>2026-08-24T13:35:58+00:00</time>
      </trkpt>
      <trkpt lat="50.23216" lon="4.93757">
        <ele>223</ele>
        <time>2026-08-24T13:36:01+00:00</time>
      </trkpt>
      <trkpt lat="50.23203" lon="4.93733">
        <ele>223</ele>
        <time>2026-08-24T13:36:04+00:00</time>
      </trkpt>
      <trkpt lat="50.23192" lon="4.93714">
        <ele>223</ele>
        <time>2026-08-24T13:36:07+00:00</time>
      </trkpt>
      <trkpt lat="50.23181" lon="4.93691">
        <ele>222</ele>
        <time>2026-08-24T13:36:10+00:00</time>
      </trkpt>
      <trkpt lat="50.23166" lon="4.9366">
        <ele>221</ele>
        <time>2026-08-24T13:36:13+00:00</time>
      </trkpt>
      <trkpt lat="50.23148" lon="4.93626">
        <ele>219</ele>
        <time>2026-08-24T13:36:16+00:00</time>
      </trkpt>
      <trkpt lat="50.23113" lon="4.93561">
        <ele>215</ele>
        <time>2026-08-24T13:36:19+00:00</time>
      </trkpt>
      <trkpt lat="50.23096" lon="4.93532">
        <ele>214</ele>
        <time>2026-08-24T13:36:22+00:00</time>
      </trkpt>
      <trkpt lat="50.23074" lon="4.93493">
        <ele>213</ele>
        <time>2026-08-24T13:36:25+00:00</time>
      </trkpt>
      <trkpt lat="50.23057" lon="4.93466">
        <ele>212</ele>
        <time>2026-08-24T13:36:28+00:00</time>
      </trkpt>
      <trkpt lat="50.23035" lon="4.93432">
        <ele>211</ele>
        <time>2026-08-24T13:36:31+00:00</time>
      </trkpt>
      <trkpt lat="50.23031" lon="4.93424">
        <ele>211</ele>
        <time>2026-08-24T13:36:34+00:00</time>
      </trkpt>
      <trkpt lat="50.2303" lon="4.9342">
        <ele>211</ele>
        <time>2026-08-24T13:36:37+00:00</time>
      </trkpt>
      <trkpt lat="50.23029" lon="4.934">
        <ele>210</ele>
        <time>2026-08-24T13:36:40+00:00</time>
      </trkpt>
      <trkpt lat="50.22997" lon="4.93381">
        <ele>207</ele>
        <time>2026-08-24T13:36:43+00:00</time>
      </trkpt>
      <trkpt lat="50.22965" lon="4.93362">
        <ele>205</ele>
        <time>2026-08-24T13:36:46+00:00</time>
      </trkpt>
      <trkpt lat="50.22933" lon="4.93344">
        <ele>203</ele>
        <time>2026-08-24T13:36:49+00:00</time>
      </trkpt>
      <trkpt lat="50.22874" lon="4.93309">
        <ele>200</ele>
        <time>2026-08-24T13:36:52+00:00</time>
      </trkpt>
      <trkpt lat="50.22862" lon="4.93306">
        <ele>200</ele>
        <time>2026-08-24T13:36:55+00:00</time>
      </trkpt>
      <trkpt lat="50.22843" lon="4.93275">
        <ele>200</ele>
        <time>2026-08-24T13:36:58+00:00</time>
      </trkpt>
      <trkpt lat="50.22828" lon="4.93229">
        <ele>198</ele>
        <time>2026-08-24T13:37:01+00:00</time>
      </trkpt>
      <trkpt lat="50.22826" lon="4.93186">
        <ele>198</ele>
        <time>2026-08-24T13:37:04+00:00</time>
      </trkpt>
      <trkpt lat="50.22817" lon="4.93152">
        <ele>197</ele>
        <time>2026-08-24T13:37:07+00:00</time>
      </trkpt>
      <trkpt lat="50.22806" lon="4.9311">
        <ele>196</ele>
        <time>2026-08-24T13:37:10+00:00</time>
      </trkpt>
      <trkpt lat="50.22791" lon="4.93077">
        <ele>195</ele>
        <time>2026-08-24T13:37:13+00:00</time>
      </trkpt>
      <trkpt lat="50.22779" lon="4.93037">
        <ele>193</ele>
        <time>2026-08-24T13:37:16+00:00</time>
      </trkpt>
      <trkpt lat="50.22779" lon="4.92998">
        <ele>191</ele>
        <time>2026-08-24T13:37:19+00:00</time>
      </trkpt>
      <trkpt lat="50.22778" lon="4.92947">
        <ele>188</ele>
        <time>2026-08-24T13:37:22+00:00</time>
      </trkpt>
      <trkpt lat="50.22782" lon="4.92907">
        <ele>187</ele>
        <time>2026-08-24T13:37:25+00:00</time>
      </trkpt>
      <trkpt lat="50.22772" lon="4.92877">
        <ele>187</ele>
        <time>2026-08-24T13:37:28+00:00</time>
      </trkpt>
      <trkpt lat="50.22764" lon="4.92858">
        <ele>186</ele>
        <time>2026-08-24T13:37:31+00:00</time>
      </trkpt>
      <trkpt lat="50.22752" lon="4.9282">
        <ele>186</ele>
        <time>2026-08-24T13:37:34+00:00</time>
      </trkpt>
      <trkpt lat="50.22746" lon="4.92785">
        <ele>186</ele>
        <time>2026-08-24T13:37:37+00:00</time>
      </trkpt>
      <trkpt lat="50.22738" lon="4.92743">
        <ele>184</ele>
        <time>2026-08-24T13:37:40+00:00</time>
      </trkpt>
      <trkpt lat="50.22743" lon="4.9271">
        <ele>183</ele>
        <time>2026-08-24T13:37:43+00:00</time>
      </trkpt>
      <trkpt lat="50.22757" lon="4.92657">
        <ele>180</ele>
        <time>2026-08-24T13:37:46+00:00</time>
      </trkpt>
      <trkpt lat="50.22769" lon="4.92638">
        <ele>174</ele>
        <time>2026-08-24T13:37:49+00:00</time>
      </trkpt>
      <trkpt lat="50.2278" lon="4.92625">
        <ele>177</ele>
        <time>2026-08-24T13:37:52+00:00</time>
      </trkpt>
      <trkpt lat="50.22791" lon="4.92611">
        <ele>175</ele>
        <time>2026-08-24T13:37:55+00:00</time>
      </trkpt>
      <trkpt lat="50.22816" lon="4.92561">
        <ele>158</ele>
        <time>2026-08-24T13:37:58+00:00</time>
      </trkpt>
      <trkpt lat="50.22816" lon="4.92549">
        <ele>157</ele>
        <time>2026-08-24T13:38:01+00:00</time>
      </trkpt>
      <trkpt lat="50.22812" lon="4.92537">
        <ele>160</ele>
        <time>2026-08-24T13:38:04+00:00</time>
      </trkpt>
      <trkpt lat="50.22794" lon="4.92515">
        <ele>155</ele>
        <time>2026-08-24T13:38:07+00:00</time>
      </trkpt>
      <trkpt lat="50.22785" lon="4.92499">
        <ele>155</ele>
        <time>2026-08-24T13:38:10+00:00</time>
      </trkpt>
      <trkpt lat="50.22775" lon="4.92486">
        <ele>156</ele>
        <time>2026-08-24T13:38:13+00:00</time>
      </trkpt>
      <trkpt lat="50.22765" lon="4.92476">
        <ele>153</ele>
        <time>2026-08-24T13:38:16+00:00</time>
      </trkpt>
      <trkpt lat="50.2275" lon="4.92464">
        <ele>157</ele>
        <time>2026-08-24T13:38:19+00:00</time>
      </trkpt>
      <trkpt lat="50.22728" lon="4.92449">
        <ele>158</ele>
        <time>2026-08-24T13:38:22+00:00</time>
      </trkpt>
      <trkpt lat="50.227" lon="4.9243">
        <ele>155</ele>
        <time>2026-08-24T13:38:25+00:00</time>
      </trkpt>
      <trkpt lat="50.22691" lon="4.9241">
        <ele>152</ele>
        <time>2026-08-24T13:38:28+00:00</time>
      </trkpt>
      <trkpt lat="50.22686" lon="4.92409">
        <ele>153</ele>
        <time>2026-08-24T13:38:31+00:00</time>
      </trkpt>
      <trkpt lat="50.22674" lon="4.92386">
        <ele>154</ele>
        <time>2026-08-24T13:38:34+00:00</time>
      </trkpt>
      <trkpt lat="50.22666" lon="4.92363">
        <ele>148</ele>
        <time>2026-08-24T13:38:37+00:00</time>
      </trkpt>
      <trkpt lat="50.22662" lon="4.92345">
        <ele>156</ele>
        <time>2026-08-24T13:38:40+00:00</time>
      </trkpt>
      <trkpt lat="50.22653" lon="4.92326">
        <ele>162</ele>
        <time>2026-08-24T13:38:43+00:00</time>
      </trkpt>
      <trkpt lat="50.22647" lon="4.92306">
        <ele>164</ele>
        <time>2026-08-24T13:38:46+00:00</time>
      </trkpt>
      <trkpt lat="50.22642" lon="4.92276">
        <ele>166</ele>
        <time>2026-08-24T13:38:49+00:00</time>
      </trkpt>
      <trkpt lat="50.22638" lon="4.92246">
        <ele>168</ele>
        <time>2026-08-24T13:38:52+00:00</time>
      </trkpt>
      <trkpt lat="50.22635" lon="4.92232">
        <ele>169</ele>
        <time>2026-08-24T13:38:55+00:00</time>
      </trkpt>
      <trkpt lat="50.22629" lon="4.92196">
        <ele>171</ele>
        <time>2026-08-24T13:38:58+00:00</time>
      </trkpt>
      <trkpt lat="50.22627" lon="4.92173">
        <ele>173</ele>
        <time>2026-08-24T13:39:01+00:00</time>
      </trkpt>
      <trkpt lat="50.22617" lon="4.92151">
        <ele>173</ele>
        <time>2026-08-24T13:39:04+00:00</time>
      </trkpt>
      <trkpt lat="50.22603" lon="4.92091">
        <ele>177</ele>
        <time>2026-08-24T13:39:07+00:00</time>
      </trkpt>
      <trkpt lat="50.22592" lon="4.92062">
        <ele>179</ele>
        <time>2026-08-24T13:39:10+00:00</time>
      </trkpt>
      <trkpt lat="50.22574" lon="4.92018">
        <ele>179</ele>
        <time>2026-08-24T13:39:13+00:00</time>
      </trkpt>
      <trkpt lat="50.22561" lon="4.91983">
        <ele>178</ele>
        <time>2026-08-24T13:39:16+00:00</time>
      </trkpt>
      <trkpt lat="50.22553" lon="4.9195">
        <ele>177</ele>
        <time>2026-08-24T13:39:19+00:00</time>
      </trkpt>
      <trkpt lat="50.22545" lon="4.91912">
        <ele>177</ele>
        <time>2026-08-24T13:39:22+00:00</time>
      </trkpt>
      <trkpt lat="50.22544" lon="4.91868">
        <ele>181</ele>
        <time>2026-08-24T13:39:25+00:00</time>
      </trkpt>
      <trkpt lat="50.22547" lon="4.91841">
        <ele>183</ele>
        <time>2026-08-24T13:39:28+00:00</time>
      </trkpt>
      <trkpt lat="50.22549" lon="4.91828">
        <ele>183</ele>
        <time>2026-08-24T13:39:31+00:00</time>
      </trkpt>
      <trkpt lat="50.22561" lon="4.91797">
        <ele>186</ele>
        <time>2026-08-24T13:39:34+00:00</time>
      </trkpt>
      <trkpt lat="50.2257" lon="4.91789">
        <ele>187</ele>
        <time>2026-08-24T13:39:37+00:00</time>
      </trkpt>
      <trkpt lat="50.22584" lon="4.9178">
        <ele>188</ele>
        <time>2026-08-24T13:39:40+00:00</time>
      </trkpt>
      <trkpt lat="50.22603" lon="4.91779">
        <ele>191</ele>
        <time>2026-08-24T13:39:43+00:00</time>
      </trkpt>
      <trkpt lat="50.22623" lon="4.91798">
        <ele>194</ele>
        <time>2026-08-24T13:39:46+00:00</time>
      </trkpt>
      <trkpt lat="50.22649" lon="4.91822">
        <ele>196</ele>
        <time>2026-08-24T13:39:49+00:00</time>
      </trkpt>
      <trkpt lat="50.22686" lon="4.91854">
        <ele>201</ele>
        <time>2026-08-24T13:39:52+00:00</time>
      </trkpt>
      <trkpt lat="50.22716" lon="4.91863">
        <ele>203</ele>
        <time>2026-08-24T13:39:55+00:00</time>
      </trkpt>
      <trkpt lat="50.22745" lon="4.91871">
        <ele>206</ele>
        <time>2026-08-24T13:39:58+00:00</time>
      </trkpt>
      <trkpt lat="50.22784" lon="4.91883">
        <ele>209</ele>
        <time>2026-08-24T13:40:01+00:00</time>
      </trkpt>
      <trkpt lat="50.22811" lon="4.91869">
        <ele>212</ele>
        <time>2026-08-24T13:40:04+00:00</time>
      </trkpt>
      <trkpt lat="50.22865" lon="4.9184">
        <ele>214</ele>
        <time>2026-08-24T13:40:07+00:00</time>
      </trkpt>
      <trkpt lat="50.2289" lon="4.91825">
        <ele>215</ele>
        <time>2026-08-24T13:40:10+00:00</time>
      </trkpt>
      <trkpt lat="50.22934" lon="4.918">
        <ele>216</ele>
        <time>2026-08-24T13:40:13+00:00</time>
      </trkpt>
      <trkpt lat="50.2296" lon="4.91784">
        <ele>218</ele>
        <time>2026-08-24T13:40:16+00:00</time>
      </trkpt>
      <trkpt lat="50.22981" lon="4.91772">
        <ele>219</ele>
        <time>2026-08-24T13:40:19+00:00</time>
      </trkpt>
      <trkpt lat="50.23004" lon="4.9176">
        <ele>219</ele>
        <time>2026-08-24T13:40:22+00:00</time>
      </trkpt>
      <trkpt lat="50.23015" lon="4.91755">
        <ele>219</ele>
        <time>2026-08-24T13:40:25+00:00</time>
      </trkpt>
      <trkpt lat="50.23025" lon="4.91753">
        <ele>220</ele>
        <time>2026-08-24T13:40:28+00:00</time>
      </trkpt>
      <trkpt lat="50.23031" lon="4.91754">
        <ele>220</ele>
        <time>2026-08-24T13:40:31+00:00</time>
      </trkpt>
      <trkpt lat="50.23042" lon="4.91761">
        <ele>220</ele>
        <time>2026-08-24T13:40:34+00:00</time>
      </trkpt>
      <trkpt lat="50.23058" lon="4.91779">
        <ele>221</ele>
        <time>2026-08-24T13:40:37+00:00</time>
      </trkpt>
      <trkpt lat="50.23077" lon="4.91799">
        <ele>222</ele>
        <time>2026-08-24T13:40:40+00:00</time>
      </trkpt>
      <trkpt lat="50.23097" lon="4.9182">
        <ele>222</ele>
        <time>2026-08-24T13:40:43+00:00</time>
      </trkpt>
      <trkpt lat="50.2311" lon="4.91826">
        <ele>224</ele>
        <time>2026-08-24T13:40:46+00:00</time>
      </trkpt>
      <trkpt lat="50.23117" lon="4.91827">
        <ele>224</ele>
        <time>2026-08-24T13:40:49+00:00</time>
      </trkpt>
      <trkpt lat="50.23122" lon="4.91826">
        <ele>224</ele>
        <time>2026-08-24T13:40:52+00:00</time>
      </trkpt>
      <trkpt lat="50.23131" lon="4.91822">
        <ele>223</ele>
        <time>2026-08-24T13:40:55+00:00</time>
      </trkpt>
      <trkpt lat="50.23153" lon="4.91807">
        <ele>224</ele>
        <time>2026-08-24T13:40:58+00:00</time>
      </trkpt>
      <trkpt lat="50.2318" lon="4.91787">
        <ele>225</ele>
        <time>2026-08-24T13:41:01+00:00</time>
      </trkpt>
      <trkpt lat="50.23185" lon="4.91786">
        <ele>225</ele>
        <time>2026-08-24T13:41:04+00:00</time>
      </trkpt>
      <trkpt lat="50.23188" lon="4.91784">
        <ele>225</ele>
        <time>2026-08-24T13:41:07+00:00</time>
      </trkpt>
      <trkpt lat="50.23197" lon="4.91796">
        <ele>225</ele>
        <time>2026-08-24T13:41:10+00:00</time>
      </trkpt>
      <trkpt lat="50.2321" lon="4.91799">
        <ele>226</ele>
        <time>2026-08-24T13:41:13+00:00</time>
      </trkpt>
      <trkpt lat="50.23224" lon="4.91794">
        <ele>226</ele>
        <time>2026-08-24T13:41:16+00:00</time>
      </trkpt>
      <trkpt lat="50.23261" lon="4.91776">
        <ele>225</ele>
        <time>2026-08-24T13:41:19+00:00</time>
      </trkpt>
      <trkpt lat="50.23286" lon="4.91767">
        <ele>225</ele>
        <time>2026-08-24T13:41:22+00:00</time>
      </trkpt>
      <trkpt lat="50.233" lon="4.91764">
        <ele>223</ele>
        <time>2026-08-24T13:41:25+00:00</time>
      </trkpt>
      <trkpt lat="50.2332" lon="4.91763">
        <ele>223</ele>
        <time>2026-08-24T13:41:28+00:00</time>
      </trkpt>
      <trkpt lat="50.23343" lon="4.91768">
        <ele>222</ele>
        <time>2026-08-24T13:41:31+00:00</time>
      </trkpt>
      <trkpt lat="50.23381" lon="4.91784">
        <ele>218</ele>
        <time>2026-08-24T13:41:34+00:00</time>
      </trkpt>
      <trkpt lat="50.23406" lon="4.918">
        <ele>214</ele>
        <time>2026-08-24T13:41:37+00:00</time>
      </trkpt>
      <trkpt lat="50.23425" lon="4.91815">
        <ele>212</ele>
        <time>2026-08-24T13:41:40+00:00</time>
      </trkpt>
      <trkpt lat="50.23446" lon="4.91834">
        <ele>210</ele>
        <time>2026-08-24T13:41:43+00:00</time>
      </trkpt>
      <trkpt lat="50.23473" lon="4.91859">
        <ele>208</ele>
        <time>2026-08-24T13:41:46+00:00</time>
      </trkpt>
      <trkpt lat="50.23494" lon="4.91881">
        <ele>208</ele>
        <time>2026-08-24T13:41:49+00:00</time>
      </trkpt>
      <trkpt lat="50.23522" lon="4.91911">
        <ele>208</ele>
        <time>2026-08-24T13:41:52+00:00</time>
      </trkpt>
      <trkpt lat="50.23529" lon="4.91914">
        <ele>209</ele>
        <time>2026-08-24T13:41:55+00:00</time>
      </trkpt>
      <trkpt lat="50.23535" lon="4.9191">
        <ele>208</ele>
        <time>2026-08-24T13:41:58+00:00</time>
      </trkpt>
      <trkpt lat="50.23537" lon="4.91925">
        <ele>208</ele>
        <time>2026-08-24T13:42:01+00:00</time>
      </trkpt>
      <trkpt lat="50.23546" lon="4.91903">
        <ele>206</ele>
        <time>2026-08-24T13:42:04+00:00</time>
      </trkpt>
      <trkpt lat="50.23551" lon="4.91879">
        <ele>202</ele>
        <time>2026-08-24T13:42:07+00:00</time>
      </trkpt>
      <trkpt lat="50.23557" lon="4.91851">
        <ele>199</ele>
        <time>2026-08-24T13:42:10+00:00</time>
      </trkpt>
      <trkpt lat="50.23566" lon="4.91793">
        <ele>193</ele>
        <time>2026-08-24T13:42:13+00:00</time>
      </trkpt>
      <trkpt lat="50.2357" lon="4.91765">
        <ele>190</ele>
        <time>2026-08-24T13:42:16+00:00</time>
      </trkpt>
      <trkpt lat="50.23572" lon="4.91738">
        <ele>188</ele>
        <time>2026-08-24T13:42:19+00:00</time>
      </trkpt>
      <trkpt lat="50.23575" lon="4.9171">
        <ele>186</ele>
        <time>2026-08-24T13:42:22+00:00</time>
      </trkpt>
      <trkpt lat="50.23576" lon="4.91685">
        <ele>184</ele>
        <time>2026-08-24T13:42:25+00:00</time>
      </trkpt>
      <trkpt lat="50.23579" lon="4.91652">
        <ele>182</ele>
        <time>2026-08-24T13:42:28+00:00</time>
      </trkpt>
      <trkpt lat="50.23585" lon="4.91598">
        <ele>180</ele>
        <time>2026-08-24T13:42:31+00:00</time>
      </trkpt>
      <trkpt lat="50.23583" lon="4.91556">
        <ele>179</ele>
        <time>2026-08-24T13:42:34+00:00</time>
      </trkpt>
      <trkpt lat="50.23578" lon="4.91519">
        <ele>177</ele>
        <time>2026-08-24T13:42:37+00:00</time>
      </trkpt>
      <trkpt lat="50.23573" lon="4.91474">
        <ele>176</ele>
        <time>2026-08-24T13:42:40+00:00</time>
      </trkpt>
      <trkpt lat="50.23565" lon="4.91421">
        <ele>174</ele>
        <time>2026-08-24T13:42:43+00:00</time>
      </trkpt>
      <trkpt lat="50.23558" lon="4.91385">
        <ele>173</ele>
        <time>2026-08-24T13:42:46+00:00</time>
      </trkpt>
      <trkpt lat="50.23569" lon="4.91349">
        <ele>172</ele>
        <time>2026-08-24T13:42:49+00:00</time>
      </trkpt>
      <trkpt lat="50.23586" lon="4.91295">
        <ele>167</ele>
        <time>2026-08-24T13:42:52+00:00</time>
      </trkpt>
      <trkpt lat="50.2361" lon="4.91243">
        <ele>149</ele>
        <time>2026-08-24T13:42:55+00:00</time>
      </trkpt>
      <trkpt lat="50.23624" lon="4.91194">
        <ele>138</ele>
        <time>2026-08-24T13:42:58+00:00</time>
      </trkpt>
      <trkpt lat="50.23623" lon="4.91187">
        <ele>138</ele>
        <time>2026-08-24T13:43:01+00:00</time>
      </trkpt>
      <trkpt lat="50.23626" lon="4.91186">
        <ele>138</ele>
        <time>2026-08-24T13:43:04+00:00</time>
      </trkpt>
      <trkpt lat="50.2363" lon="4.9117">
        <ele>136</ele>
        <time>2026-08-24T13:43:07+00:00</time>
      </trkpt>
      <trkpt lat="50.23637" lon="4.91156">
        <ele>135</ele>
        <time>2026-08-24T13:43:10+00:00</time>
      </trkpt>
      <trkpt lat="50.23647" lon="4.91145">
        <ele>134</ele>
        <time>2026-08-24T13:43:13+00:00</time>
      </trkpt>
      <trkpt lat="50.23666" lon="4.91134">
        <ele>130</ele>
        <time>2026-08-24T13:43:16+00:00</time>
      </trkpt>
      <trkpt lat="50.23691" lon="4.91122">
        <ele>127</ele>
        <time>2026-08-24T13:43:19+00:00</time>
      </trkpt>
      <trkpt lat="50.23708" lon="4.91117">
        <ele>127</ele>
        <time>2026-08-24T13:43:22+00:00</time>
      </trkpt>
      <trkpt lat="50.23721" lon="4.9111">
        <ele>124</ele>
        <time>2026-08-24T13:43:25+00:00</time>
      </trkpt>
      <trkpt lat="50.2374" lon="4.91095">
        <ele>122</ele>
        <time>2026-08-24T13:43:28+00:00</time>
      </trkpt>
      <trkpt lat="50.23757" lon="4.91073">
        <ele>121</ele>
        <time>2026-08-24T13:43:31+00:00</time>
      </trkpt>
      <trkpt lat="50.23774" lon="4.9105">
        <ele>116</ele>
        <time>2026-08-24T13:43:34+00:00</time>
      </trkpt>
      <trkpt lat="50.23781" lon="4.91043">
        <ele>114</ele>
        <time>2026-08-24T13:43:37+00:00</time>
      </trkpt>
      <trkpt lat="50.23783" lon="4.91034">
        <ele>113</ele>
        <time>2026-08-24T13:43:40+00:00</time>
      </trkpt>
      <trkpt lat="50.23785" lon="4.91015">
        <ele>112</ele>
        <time>2026-08-24T13:43:43+00:00</time>
      </trkpt>
      <trkpt lat="50.23785" lon="4.90996">
        <ele>111</ele>
        <time>2026-08-24T13:43:46+00:00</time>
      </trkpt>
      <trkpt lat="50.23786" lon="4.90993">
        <ele>111</ele>
        <time>2026-08-24T13:43:49+00:00</time>
      </trkpt>
      <trkpt lat="50.23792" lon="4.90995">
        <ele>109</ele>
        <time>2026-08-24T13:43:52+00:00</time>
      </trkpt>
      <trkpt lat="50.23803" lon="4.91007">
        <ele>106</ele>
        <time>2026-08-24T13:43:55+00:00</time>
      </trkpt>
      <trkpt lat="50.23804" lon="4.91005">
        <ele>106</ele>
        <time>2026-08-24T13:43:58+00:00</time>
      </trkpt>
      <trkpt lat="50.23802" lon="4.90984">
        <ele>104</ele>
        <time>2026-08-24T13:44:01+00:00</time>
      </trkpt>
      <trkpt lat="50.23817" lon="4.91006">
        <ele>104</ele>
        <time>2026-08-24T13:44:04+00:00</time>
      </trkpt>
      <trkpt lat="50.23807" lon="4.9098">
        <ele>104</ele>
        <time>2026-08-24T13:44:07+00:00</time>
      </trkpt>
      <trkpt lat="50.23805" lon="4.90969">
        <ele>101</ele>
        <time>2026-08-24T13:44:10+00:00</time>
      </trkpt>
      <trkpt lat="50.23806" lon="4.90961">
        <ele>101</ele>
        <time>2026-08-24T13:44:13+00:00</time>
      </trkpt>
      <trkpt lat="50.23817" lon="4.90929">
        <ele>96</ele>
        <time>2026-08-24T13:44:16+00:00</time>
      </trkpt>
      <trkpt lat="50.2382" lon="4.90918">
        <ele>92</ele>
        <time>2026-08-24T13:44:19+00:00</time>
      </trkpt>
      <trkpt lat="50.23821" lon="4.909">
        <ele>92</ele>
        <time>2026-08-24T13:44:22+00:00</time>
      </trkpt>
      <trkpt lat="50.23827" lon="4.90852">
        <ele>92</ele>
        <time>2026-08-24T13:44:25+00:00</time>
      </trkpt>
      <trkpt lat="50.23831" lon="4.90818">
        <ele>92</ele>
        <time>2026-08-24T13:44:28+00:00</time>
      </trkpt>
      <trkpt lat="50.23835" lon="4.90781">
        <ele>92</ele>
        <time>2026-08-24T13:44:31+00:00</time>
      </trkpt>
      <trkpt lat="50.23857" lon="4.90793">
        <ele>92</ele>
        <time>2026-08-24T13:44:34+00:00</time>
      </trkpt>
      <trkpt lat="50.23877" lon="4.90805">
        <ele>91</ele>
        <time>2026-08-24T13:44:37+00:00</time>
      </trkpt>
      <trkpt lat="50.23898" lon="4.90817">
        <ele>91</ele>
        <time>2026-08-24T13:44:40+00:00</time>
      </trkpt>
      <trkpt lat="50.23906" lon="4.90821">
        <ele>93</ele>
        <time>2026-08-24T13:44:43+00:00</time>
      </trkpt>
      <trkpt lat="50.23912" lon="4.90827">
        <ele>93</ele>
        <time>2026-08-24T13:44:46+00:00</time>
      </trkpt>
      <trkpt lat="50.23916" lon="4.90834">
        <ele>91</ele>
        <time>2026-08-24T13:44:49+00:00</time>
      </trkpt>
      <trkpt lat="50.2392" lon="4.90873">
        <ele>92</ele>
        <time>2026-08-24T13:44:52+00:00</time>
      </trkpt>
      <trkpt lat="50.2392" lon="4.90885">
        <ele>91</ele>
        <time>2026-08-24T13:44:55+00:00</time>
      </trkpt>
      <trkpt lat="50.23924" lon="4.90932">
        <ele>92</ele>
        <time>2026-08-24T13:44:58+00:00</time>
      </trkpt>
      <trkpt lat="50.23931" lon="4.9093">
        <ele>92</ele>
        <time>2026-08-24T13:45:01+00:00</time>
      </trkpt>
      <trkpt lat="50.23951" lon="4.90926">
        <ele>91</ele>
        <time>2026-08-24T13:45:04+00:00</time>
      </trkpt>
      <trkpt lat="50.23974" lon="4.90922">
        <ele>91</ele>
        <time>2026-08-24T13:45:07+00:00</time>
      </trkpt>
      <trkpt lat="50.2399" lon="4.90918">
        <ele>91</ele>
        <time>2026-08-24T13:45:10+00:00</time>
      </trkpt>
      <trkpt lat="50.23997" lon="4.90917">
        <ele>91</ele>
        <time>2026-08-24T13:45:13+00:00</time>
      </trkpt>
      <trkpt lat="50.23998" lon="4.90915">
        <ele>91</ele>
        <time>2026-08-24T13:45:16+00:00</time>
      </trkpt>
      <trkpt lat="50.24004" lon="4.9091">
        <ele>91</ele>
        <time>2026-08-24T13:45:19+00:00</time>
      </trkpt>
      <trkpt lat="50.2401" lon="4.90913">
        <ele>91</ele>
        <time>2026-08-24T13:45:22+00:00</time>
      </trkpt>
      <trkpt lat="50.24026" lon="4.90908">
        <ele>93</ele>
        <time>2026-08-24T13:45:25+00:00</time>
      </trkpt>
      <trkpt lat="50.24032" lon="4.90884">
        <ele>94</ele>
        <time>2026-08-24T13:45:28+00:00</time>
      </trkpt>
      <trkpt lat="50.24036" lon="4.90879">
        <ele>94</ele>
        <time>2026-08-24T13:45:31+00:00</time>
      </trkpt>
      <trkpt lat="50.24045" lon="4.909">
        <ele>95</ele>
        <time>2026-08-24T13:45:34+00:00</time>
      </trkpt>
      <trkpt lat="50.24052" lon="4.90933">
        <ele>96</ele>
        <time>2026-08-24T13:45:37+00:00</time>
      </trkpt>
      <trkpt lat="50.24056" lon="4.91">
        <ele>96</ele>
        <time>2026-08-24T13:45:40+00:00</time>
      </trkpt>
      <trkpt lat="50.24057" lon="4.91047">
        <ele>95</ele>
        <time>2026-08-24T13:45:43+00:00</time>
      </trkpt>
      <trkpt lat="50.24059" lon="4.91093">
        <ele>95</ele>
        <time>2026-08-24T13:45:46+00:00</time>
      </trkpt>
      <trkpt lat="50.24061" lon="4.91151">
        <ele>95</ele>
        <time>2026-08-24T13:45:49+00:00</time>
      </trkpt>
      <trkpt lat="50.24063" lon="4.91185">
        <ele>96</ele>
        <time>2026-08-24T13:45:52+00:00</time>
      </trkpt>
      <trkpt lat="50.24066" lon="4.91219">
        <ele>96</ele>
        <time>2026-08-24T13:45:55+00:00</time>
      </trkpt>
      <trkpt lat="50.24069" lon="4.91243">
        <ele>95</ele>
        <time>2026-08-24T13:45:58+00:00</time>
      </trkpt>
      <trkpt lat="50.24073" lon="4.91239">
        <ele>96</ele>
        <time>2026-08-24T13:46:01+00:00</time>
      </trkpt>
      <trkpt lat="50.24075" lon="4.91246">
        <ele>96</ele>
        <time>2026-08-24T13:46:04+00:00</time>
      </trkpt>
      <trkpt lat="50.24084" lon="4.91261">
        <ele>98</ele>
        <time>2026-08-24T13:46:07+00:00</time>
      </trkpt>
      <trkpt lat="50.24085" lon="4.91268">
        <ele>98</ele>
        <time>2026-08-24T13:46:10+00:00</time>
      </trkpt>
      <trkpt lat="50.24085" lon="4.91278">
        <ele>98</ele>
        <time>2026-08-24T13:46:13+00:00</time>
      </trkpt>
      <trkpt lat="50.24086" lon="4.91281">
        <ele>97</ele>
        <time>2026-08-24T13:46:16+00:00</time>
      </trkpt>
      <trkpt lat="50.24089" lon="4.91284">
        <ele>97</ele>
        <time>2026-08-24T13:46:19+00:00</time>
      </trkpt>
      <trkpt lat="50.24096" lon="4.91247">
        <ele>98</ele>
        <time>2026-08-24T13:46:22+00:00</time>
      </trkpt>
      <trkpt lat="50.241" lon="4.91244">
        <ele>98</ele>
        <time>2026-08-24T13:46:25+00:00</time>
      </trkpt>
      <trkpt lat="50.24119" lon="4.9124">
        <ele>100</ele>
        <time>2026-08-24T13:46:28+00:00</time>
      </trkpt>
      <trkpt lat="50.24122" lon="4.9124">
        <ele>111</ele>
        <time>2026-08-24T13:46:31+00:00</time>
      </trkpt>
      <trkpt lat="50.24126" lon="4.91278">
        <ele>109</ele>
        <time>2026-08-24T13:46:34+00:00</time>
      </trkpt>
      <trkpt lat="50.24131" lon="4.91336">
        <ele>109</ele>
        <time>2026-08-24T13:46:37+00:00</time>
      </trkpt>
      <trkpt lat="50.2414" lon="4.91401">
        <ele>108</ele>
        <time>2026-08-24T13:46:40+00:00</time>
      </trkpt>
      <trkpt lat="50.24148" lon="4.91438">
        <ele>108</ele>
        <time>2026-08-24T13:46:43+00:00</time>
      </trkpt>
      <trkpt lat="50.24159" lon="4.91488">
        <ele>107</ele>
        <time>2026-08-24T13:46:46+00:00</time>
      </trkpt>
      <trkpt lat="50.24177" lon="4.91532">
        <ele>112</ele>
        <time>2026-08-24T13:46:49+00:00</time>
      </trkpt>
      <trkpt lat="50.24193" lon="4.91557">
        <ele>114</ele>
        <time>2026-08-24T13:46:52+00:00</time>
      </trkpt>
      <trkpt lat="50.24211" lon="4.91583">
        <ele>113</ele>
        <time>2026-08-24T13:46:55+00:00</time>
      </trkpt>
      <trkpt lat="50.24234" lon="4.91616">
        <ele>113</ele>
        <time>2026-08-24T13:46:58+00:00</time>
      </trkpt>
      <trkpt lat="50.24264" lon="4.91664">
        <ele>111</ele>
        <time>2026-08-24T13:47:01+00:00</time>
      </trkpt>
      <trkpt lat="50.24276" lon="4.91678">
        <ele>111</ele>
        <time>2026-08-24T13:47:04+00:00</time>
      </trkpt>
      <trkpt lat="50.24289" lon="4.91694">
        <ele>109</ele>
        <time>2026-08-24T13:47:07+00:00</time>
      </trkpt>
      <trkpt lat="50.24303" lon="4.91712">
        <ele>108</ele>
        <time>2026-08-24T13:47:10+00:00</time>
      </trkpt>
      <trkpt lat="50.24323" lon="4.91731">
        <ele>106</ele>
        <time>2026-08-24T13:47:13+00:00</time>
      </trkpt>
      <trkpt lat="50.24349" lon="4.91756">
        <ele>103</ele>
        <time>2026-08-24T13:47:16+00:00</time>
      </trkpt>
      <trkpt lat="50.24384" lon="4.91771">
        <ele>102</ele>
        <time>2026-08-24T13:47:19+00:00</time>
      </trkpt>
      <trkpt lat="50.24411" lon="4.91774">
        <ele>101</ele>
        <time>2026-08-24T13:47:22+00:00</time>
      </trkpt>
      <trkpt lat="50.24454" lon="4.91778">
        <ele>99</ele>
        <time>2026-08-24T13:47:25+00:00</time>
      </trkpt>
      <trkpt lat="50.2447" lon="4.91763">
        <ele>99</ele>
        <time>2026-08-24T13:47:28+00:00</time>
      </trkpt>
      <trkpt lat="50.24495" lon="4.91765">
        <ele>99</ele>
        <time>2026-08-24T13:47:31+00:00</time>
      </trkpt>
      <trkpt lat="50.24509" lon="4.9177">
        <ele>98</ele>
        <time>2026-08-24T13:47:34+00:00</time>
      </trkpt>
      <trkpt lat="50.24514" lon="4.91766">
        <ele>98</ele>
        <time>2026-08-24T13:47:37+00:00</time>
      </trkpt>
      <trkpt lat="50.2452" lon="4.91763">
        <ele>96</ele>
        <time>2026-08-24T13:47:40+00:00</time>
      </trkpt>
      <trkpt lat="50.24544" lon="4.91757">
        <ele>98</ele>
        <time>2026-08-24T13:47:43+00:00</time>
      </trkpt>
      <trkpt lat="50.24584" lon="4.91746">
        <ele>98</ele>
        <time>2026-08-24T13:47:46+00:00</time>
      </trkpt>
      <trkpt lat="50.24605" lon="4.91738">
        <ele>98</ele>
        <time>2026-08-24T13:47:49+00:00</time>
      </trkpt>
      <trkpt lat="50.24632" lon="4.91724">
        <ele>98</ele>
        <time>2026-08-24T13:47:52+00:00</time>
      </trkpt>
      <trkpt lat="50.24635" lon="4.91718">
        <ele>99</ele>
        <time>2026-08-24T13:47:55+00:00</time>
      </trkpt>
      <trkpt lat="50.24637" lon="4.91712">
        <ele>99</ele>
        <time>2026-08-24T13:47:58+00:00</time>
      </trkpt>
      <trkpt lat="50.24636" lon="4.91705">
        <ele>101</ele>
        <time>2026-08-24T13:48:01+00:00</time>
      </trkpt>
      <trkpt lat="50.2463" lon="4.91675">
        <ele>102</ele>
        <time>2026-08-24T13:48:04+00:00</time>
      </trkpt>
      <trkpt lat="50.24629" lon="4.91663">
        <ele>103</ele>
        <time>2026-08-24T13:48:07+00:00</time>
      </trkpt>
      <trkpt lat="50.24629" lon="4.91654">
        <ele>104</ele>
        <time>2026-08-24T13:48:10+00:00</time>
      </trkpt>
      <trkpt lat="50.24631" lon="4.91645">
        <ele>105</ele>
        <time>2026-08-24T13:48:13+00:00</time>
      </trkpt>
      <trkpt lat="50.24636" lon="4.91636">
        <ele>106</ele>
        <time>2026-08-24T13:48:16+00:00</time>
      </trkpt>
      <trkpt lat="50.24643" lon="4.9163">
        <ele>106</ele>
        <time>2026-08-24T13:48:19+00:00</time>
      </trkpt>
      <trkpt lat="50.24662" lon="4.91612">
        <ele>107</ele>
        <time>2026-08-24T13:48:22+00:00</time>
      </trkpt>
      <trkpt lat="50.24696" lon="4.91579">
        <ele>109</ele>
        <time>2026-08-24T13:48:25+00:00</time>
      </trkpt>
      <trkpt lat="50.24712" lon="4.91572">
        <ele>110</ele>
        <time>2026-08-24T13:48:28+00:00</time>
      </trkpt>
      <trkpt lat="50.24726" lon="4.91563">
        <ele>111</ele>
        <time>2026-08-24T13:48:31+00:00</time>
      </trkpt>
      <trkpt lat="50.24741" lon="4.91552">
        <ele>111</ele>
        <time>2026-08-24T13:48:34+00:00</time>
      </trkpt>
      <trkpt lat="50.24763" lon="4.91542">
        <ele>112</ele>
        <time>2026-08-24T13:48:37+00:00</time>
      </trkpt>
      <trkpt lat="50.24789" lon="4.91531">
        <ele>112</ele>
        <time>2026-08-24T13:48:40+00:00</time>
      </trkpt>
      <trkpt lat="50.24801" lon="4.91523">
        <ele>111</ele>
        <time>2026-08-24T13:48:43+00:00</time>
      </trkpt>
      <trkpt lat="50.24802" lon="4.9152">
        <ele>114</ele>
        <time>2026-08-24T13:48:46+00:00</time>
      </trkpt>
      <trkpt lat="50.2481" lon="4.91515">
        <ele>112</ele>
        <time>2026-08-24T13:48:49+00:00</time>
      </trkpt>
      <trkpt lat="50.24832" lon="4.91508">
        <ele>112</ele>
        <time>2026-08-24T13:48:52+00:00</time>
      </trkpt>
      <trkpt lat="50.24855" lon="4.91501">
        <ele>109</ele>
        <time>2026-08-24T13:48:55+00:00</time>
      </trkpt>
      <trkpt lat="50.24872" lon="4.915">
        <ele>108</ele>
        <time>2026-08-24T13:48:58+00:00</time>
      </trkpt>
      <trkpt lat="50.24884" lon="4.91505">
        <ele>105</ele>
        <time>2026-08-24T13:49:01+00:00</time>
      </trkpt>
      <trkpt lat="50.24892" lon="4.91523">
        <ele>103</ele>
        <time>2026-08-24T13:49:04+00:00</time>
      </trkpt>
      <trkpt lat="50.24921" lon="4.91507">
        <ele>104</ele>
        <time>2026-08-24T13:49:07+00:00</time>
      </trkpt>
      <trkpt lat="50.24949" lon="4.9149">
        <ele>104</ele>
        <time>2026-08-24T13:49:10+00:00</time>
      </trkpt>
      <trkpt lat="50.24978" lon="4.91474">
        <ele>106</ele>
        <time>2026-08-24T13:49:13+00:00</time>
      </trkpt>
      <trkpt lat="50.25023" lon="4.91448">
        <ele>110</ele>
        <time>2026-08-24T13:49:16+00:00</time>
      </trkpt>
      <trkpt lat="50.2505" lon="4.91437">
        <ele>111</ele>
        <time>2026-08-24T13:49:19+00:00</time>
      </trkpt>
      <trkpt lat="50.25071" lon="4.91437">
        <ele>113</ele>
        <time>2026-08-24T13:49:22+00:00</time>
      </trkpt>
      <trkpt lat="50.25082" lon="4.91424">
        <ele>111</ele>
        <time>2026-08-24T13:49:25+00:00</time>
      </trkpt>
      <trkpt lat="50.25088" lon="4.91414">
        <ele>114</ele>
        <time>2026-08-24T13:49:28+00:00</time>
      </trkpt>
      <trkpt lat="50.25107" lon="4.91397">
        <ele>112</ele>
        <time>2026-08-24T13:49:31+00:00</time>
      </trkpt>
      <trkpt lat="50.25118" lon="4.91379">
        <ele>114</ele>
        <time>2026-08-24T13:49:34+00:00</time>
      </trkpt>
      <trkpt lat="50.25127" lon="4.91361">
        <ele>112</ele>
        <time>2026-08-24T13:49:37+00:00</time>
      </trkpt>
      <trkpt lat="50.25136" lon="4.91341">
        <ele>113</ele>
        <time>2026-08-24T13:49:40+00:00</time>
      </trkpt>
      <trkpt lat="50.25159" lon="4.91323">
        <ele>124</ele>
        <time>2026-08-24T13:49:43+00:00</time>
      </trkpt>
      <trkpt lat="50.25193" lon="4.91296">
        <ele>127</ele>
        <time>2026-08-24T13:49:46+00:00</time>
      </trkpt>
      <trkpt lat="50.25206" lon="4.91284">
        <ele>127</ele>
        <time>2026-08-24T13:49:49+00:00</time>
      </trkpt>
      <trkpt lat="50.25232" lon="4.91276">
        <ele>127</ele>
        <time>2026-08-24T13:49:52+00:00</time>
      </trkpt>
      <trkpt lat="50.25257" lon="4.91268">
        <ele>126</ele>
        <time>2026-08-24T13:49:55+00:00</time>
      </trkpt>
      <trkpt lat="50.25294" lon="4.91256">
        <ele>126</ele>
        <time>2026-08-24T13:49:58+00:00</time>
      </trkpt>
      <trkpt lat="50.25311" lon="4.91244">
        <ele>129</ele>
        <time>2026-08-24T13:50:01+00:00</time>
      </trkpt>
      <trkpt lat="50.25333" lon="4.91204">
        <ele>132</ele>
        <time>2026-08-24T13:50:04+00:00</time>
      </trkpt>
      <trkpt lat="50.25332" lon="4.91192">
        <ele>134</ele>
        <time>2026-08-24T13:50:07+00:00</time>
      </trkpt>
      <trkpt lat="50.25336" lon="4.91181">
        <ele>136</ele>
        <time>2026-08-24T13:50:10+00:00</time>
      </trkpt>
      <trkpt lat="50.2534" lon="4.91178">
        <ele>138</ele>
        <time>2026-08-24T13:50:13+00:00</time>
      </trkpt>
      <trkpt lat="50.25343" lon="4.91174">
        <ele>137</ele>
        <time>2026-08-24T13:50:16+00:00</time>
      </trkpt>
      <trkpt lat="50.25351" lon="4.91168">
        <ele>138</ele>
        <time>2026-08-24T13:50:19+00:00</time>
      </trkpt>
      <trkpt lat="50.25362" lon="4.91165">
        <ele>138</ele>
        <time>2026-08-24T13:50:22+00:00</time>
      </trkpt>
      <trkpt lat="50.25385" lon="4.9116">
        <ele>133</ele>
        <time>2026-08-24T13:50:25+00:00</time>
      </trkpt>
      <trkpt lat="50.25414" lon="4.91154">
        <ele>131</ele>
        <time>2026-08-24T13:50:28+00:00</time>
      </trkpt>
      <trkpt lat="50.2544" lon="4.91154">
        <ele>127</ele>
        <time>2026-08-24T13:50:31+00:00</time>
      </trkpt>
      <trkpt lat="50.2548" lon="4.91154">
        <ele>126</ele>
        <time>2026-08-24T13:50:34+00:00</time>
      </trkpt>
      <trkpt lat="50.25511" lon="4.91157">
        <ele>124</ele>
        <time>2026-08-24T13:50:37+00:00</time>
      </trkpt>
      <trkpt lat="50.25542" lon="4.91159">
        <ele>122</ele>
        <time>2026-08-24T13:50:40+00:00</time>
      </trkpt>
      <trkpt lat="50.25593" lon="4.91164">
        <ele>115</ele>
        <time>2026-08-24T13:50:43+00:00</time>
      </trkpt>
      <trkpt lat="50.25616" lon="4.91156">
        <ele>115</ele>
        <time>2026-08-24T13:50:46+00:00</time>
      </trkpt>
      <trkpt lat="50.25644" lon="4.91147">
        <ele>113</ele>
        <time>2026-08-24T13:50:49+00:00</time>
      </trkpt>
      <trkpt lat="50.25657" lon="4.91139">
        <ele>114</ele>
        <time>2026-08-24T13:50:52+00:00</time>
      </trkpt>
      <trkpt lat="50.25664" lon="4.91133">
        <ele>113</ele>
        <time>2026-08-24T13:50:55+00:00</time>
      </trkpt>
      <trkpt lat="50.25678" lon="4.91125">
        <ele>114</ele>
        <time>2026-08-24T13:50:58+00:00</time>
      </trkpt>
      <trkpt lat="50.25691" lon="4.9112">
        <ele>113</ele>
        <time>2026-08-24T13:51:01+00:00</time>
      </trkpt>
      <trkpt lat="50.25711" lon="4.9111">
        <ele>113</ele>
        <time>2026-08-24T13:51:04+00:00</time>
      </trkpt>
      <trkpt lat="50.25718" lon="4.91105">
        <ele>115</ele>
        <time>2026-08-24T13:51:07+00:00</time>
      </trkpt>
      <trkpt lat="50.25724" lon="4.91094">
        <ele>116</ele>
        <time>2026-08-24T13:51:10+00:00</time>
      </trkpt>
      <trkpt lat="50.2573" lon="4.91093">
        <ele>116</ele>
        <time>2026-08-24T13:51:13+00:00</time>
      </trkpt>
      <trkpt lat="50.25765" lon="4.91077">
        <ele>114</ele>
        <time>2026-08-24T13:51:16+00:00</time>
      </trkpt>
      <trkpt lat="50.25802" lon="4.91059">
        <ele>113</ele>
        <time>2026-08-24T13:51:19+00:00</time>
      </trkpt>
      <trkpt lat="50.25835" lon="4.91041">
        <ele>108</ele>
        <time>2026-08-24T13:51:22+00:00</time>
      </trkpt>
      <trkpt lat="50.25842" lon="4.91033">
        <ele>106</ele>
        <time>2026-08-24T13:51:25+00:00</time>
      </trkpt>
      <trkpt lat="50.25855" lon="4.91013">
        <ele>110</ele>
        <time>2026-08-24T13:51:28+00:00</time>
      </trkpt>
      <trkpt lat="50.25838" lon="4.90989">
        <ele>112</ele>
        <time>2026-08-24T13:51:31+00:00</time>
      </trkpt>
      <trkpt lat="50.25819" lon="4.90962">
        <ele>112</ele>
        <time>2026-08-24T13:51:34+00:00</time>
      </trkpt>
      <trkpt lat="50.25799" lon="4.90929">
        <ele>112</ele>
        <time>2026-08-24T13:51:37+00:00</time>
      </trkpt>
      <trkpt lat="50.25789" lon="4.90907">
        <ele>112</ele>
        <time>2026-08-24T13:51:40+00:00</time>
      </trkpt>
      <trkpt lat="50.25785" lon="4.90893">
        <ele>111</ele>
        <time>2026-08-24T13:51:43+00:00</time>
      </trkpt>
      <trkpt lat="50.25789" lon="4.90907">
        <ele>112</ele>
        <time>2026-08-24T13:51:46+00:00</time>
      </trkpt>
      <trkpt lat="50.25813" lon="4.90911">
        <ele>105</ele>
        <time>2026-08-24T13:51:49+00:00</time>
      </trkpt>
      <trkpt lat="50.25836" lon="4.9092">
        <ele>103</ele>
        <time>2026-08-24T13:51:52+00:00</time>
      </trkpt>
      <trkpt lat="50.25865" lon="4.90932">
        <ele>102</ele>
        <time>2026-08-24T13:51:55+00:00</time>
      </trkpt>
      <trkpt lat="50.25885" lon="4.90943">
        <ele>100</ele>
        <time>2026-08-24T13:51:58+00:00</time>
      </trkpt>
      <trkpt lat="50.2591" lon="4.9096">
        <ele>104</ele>
        <time>2026-08-24T13:52:01+00:00</time>
      </trkpt>
      <trkpt lat="50.2592" lon="4.90949">
        <ele>104</ele>
        <time>2026-08-24T13:52:04+00:00</time>
      </trkpt>
      <trkpt lat="50.25941" lon="4.90919">
        <ele>108</ele>
        <time>2026-08-24T13:52:07+00:00</time>
      </trkpt>
      <trkpt lat="50.25958" lon="4.90899">
        <ele>112</ele>
        <time>2026-08-24T13:52:10+00:00</time>
      </trkpt>
      <trkpt lat="50.25976" lon="4.90878">
        <ele>111</ele>
        <time>2026-08-24T13:52:13+00:00</time>
      </trkpt>
      <trkpt lat="50.25971" lon="4.90872">
        <ele>114</ele>
        <time>2026-08-24T13:52:16+00:00</time>
      </trkpt>
      <trkpt lat="50.25948" lon="4.909">
        <ele>111</ele>
        <time>2026-08-24T13:52:19+00:00</time>
      </trkpt>
      <trkpt lat="50.25936" lon="4.90905">
        <ele>112</ele>
        <time>2026-08-24T13:52:22+00:00</time>
      </trkpt>
      <trkpt lat="50.25924" lon="4.90898">
        <ele>115</ele>
        <time>2026-08-24T13:52:25+00:00</time>
      </trkpt>
      <trkpt lat="50.25914" lon="4.90891">
        <ele>116</ele>
        <time>2026-08-24T13:52:28+00:00</time>
      </trkpt>
      <trkpt lat="50.25905" lon="4.90883">
        <ele>119</ele>
        <time>2026-08-24T13:52:31+00:00</time>
      </trkpt>
      <trkpt lat="50.25894" lon="4.90867">
        <ele>124</ele>
        <time>2026-08-24T13:52:34+00:00</time>
      </trkpt>
      <trkpt lat="50.25888" lon="4.90864">
        <ele>124</ele>
        <time>2026-08-24T13:52:37+00:00</time>
      </trkpt>
      <trkpt lat="50.25879" lon="4.9085">
        <ele>129</ele>
        <time>2026-08-24T13:52:40+00:00</time>
      </trkpt>
      <trkpt lat="50.25862" lon="4.90821">
        <ele>133</ele>
        <time>2026-08-24T13:52:43+00:00</time>
      </trkpt>
      <trkpt lat="50.25861" lon="4.90816">
        <ele>135</ele>
        <time>2026-08-24T13:52:46+00:00</time>
      </trkpt>
      <trkpt lat="50.2585" lon="4.90786">
        <ele>142</ele>
        <time>2026-08-24T13:52:49+00:00</time>
      </trkpt>
      <trkpt lat="50.25825" lon="4.90763">
        <ele>145</ele>
        <time>2026-08-24T13:52:52+00:00</time>
      </trkpt>
      <trkpt lat="50.25819" lon="4.90746">
        <ele>149</ele>
        <time>2026-08-24T13:52:55+00:00</time>
      </trkpt>
      <trkpt lat="50.2582" lon="4.90722">
        <ele>154</ele>
        <time>2026-08-24T13:52:58+00:00</time>
      </trkpt>
      <trkpt lat="50.25818" lon="4.90698">
        <ele>162</ele>
        <time>2026-08-24T13:53:01+00:00</time>
      </trkpt>
      <trkpt lat="50.25824" lon="4.90695">
        <ele>154</ele>
        <time>2026-08-24T13:53:04+00:00</time>
      </trkpt>
      <trkpt lat="50.25825" lon="4.907">
        <ele>159</ele>
        <time>2026-08-24T13:53:07+00:00</time>
      </trkpt>
      <trkpt lat="50.25827" lon="4.90703">
        <ele>159</ele>
        <time>2026-08-24T13:53:10+00:00</time>
      </trkpt>
      <trkpt lat="50.25829" lon="4.90708">
        <ele>159</ele>
        <time>2026-08-24T13:53:13+00:00</time>
      </trkpt>
      <trkpt lat="50.25856" lon="4.9071">
        <ele>154</ele>
        <time>2026-08-24T13:53:16+00:00</time>
      </trkpt>
      <trkpt lat="50.25885" lon="4.90707">
        <ele>153</ele>
        <time>2026-08-24T13:53:19+00:00</time>
      </trkpt>
      <trkpt lat="50.25907" lon="4.907">
        <ele>152</ele>
        <time>2026-08-24T13:53:22+00:00</time>
      </trkpt>
      <trkpt lat="50.2593" lon="4.90692">
        <ele>148</ele>
        <time>2026-08-24T13:53:25+00:00</time>
      </trkpt>
      <trkpt lat="50.25939" lon="4.90693">
        <ele>146</ele>
        <time>2026-08-24T13:53:28+00:00</time>
      </trkpt>
      <trkpt lat="50.25948" lon="4.90699">
        <ele>146</ele>
        <time>2026-08-24T13:53:31+00:00</time>
      </trkpt>
      <trkpt lat="50.25969" lon="4.90689">
        <ele>144</ele>
        <time>2026-08-24T13:53:34+00:00</time>
      </trkpt>
      <trkpt lat="50.25988" lon="4.90684">
        <ele>142</ele>
        <time>2026-08-24T13:53:37+00:00</time>
      </trkpt>
      <trkpt lat="50.25987" lon="4.90687">
        <ele>142</ele>
        <time>2026-08-24T13:53:40+00:00</time>
      </trkpt>
      <trkpt lat="50.25977" lon="4.90695">
        <ele>137</ele>
        <time>2026-08-24T13:53:43+00:00</time>
      </trkpt>
      <trkpt lat="50.25961" lon="4.90701">
        <ele>140</ele>
        <time>2026-08-24T13:53:46+00:00</time>
      </trkpt>
      <trkpt lat="50.25942" lon="4.90709">
        <ele>138</ele>
        <time>2026-08-24T13:53:49+00:00</time>
      </trkpt>
      <trkpt lat="50.25941" lon="4.90712">
        <ele>137</ele>
        <time>2026-08-24T13:53:52+00:00</time>
      </trkpt>
    </trkseg>
  </trk>
</gpx>
